Home > Products > Valid Products > TAF

000
FTUS44 KOUN 280738 AAA
TAFPNC
TAF AMD
KPNC 280738Z 2808/2906 14006KT 5SM -TSRA BR SCT030CB OVC045
     FM280900 VRB06KT P6SM SCT010 BKN030
      TEMPO 2809/2813 5SM TSRA BR OVC015CB
     FM281300 16010KT 6SM -RA BR OVC025
     FM281500 15010KT P6SM BKN030=



000
FTUS44 KOUN 280738 AAA
TAFPNC
TAF AMD
KPNC 280738Z 2808/2906 14006KT 5SM -TSRA BR SCT030CB OVC045
     FM280900 VRB06KT P6SM SCT010 BKN030
      TEMPO 2809/2813 5SM TSRA BR OVC015CB
     FM281300 16010KT 6SM -RA BR OVC025
     FM281500 15010KT P6SM BKN030=



000
FTUS44 KOUN 280711 AAA
TAFHBR
TAF AMD
KHBR 280711Z 2807/2906 16011KT 6SM -TSRA SCT012 OVC050CB
      TEMPO 2808/2810 25020G30KT 1SM +TSRA SCT008 BKN012CB
     FM281500 18012G16KT P6SM OVC030 PROB30 2817/2821 6SM -TSRA
      BKN030CB=



000
FTUS44 KOUN 280711 AAA
TAFHBR
TAF AMD
KHBR 280711Z 2807/2906 16011KT 6SM -TSRA SCT012 OVC050CB
      TEMPO 2808/2810 25020G30KT 1SM +TSRA SCT008 BKN012CB
     FM281500 18012G16KT P6SM OVC030 PROB30 2817/2821 6SM -TSRA
      BKN030CB=



000
FTUS44 KOUN 280527
TAFWWR
TAF
KWWR 280527Z 2806/2906 18011KT P6SM FEW030 OVC100
     FM281500 18014G20KT P6SM BKN030 PROB30 2818/2824 6SM -TSRA
      BKN015CB
     FM290000 18013KT P6SM OVC030=



000
FTUS44 KOUN 280527
TAFSPS
TAF
KSPS 280527Z 2806/2906 16011KT P6SM FEW040 BKN120
      TEMPO 2810/2814 -TSRA BKN025CB
     FM281400 19015KT P6SM BKN030 PROB30 2818/2821 6SM -TSRA
      BKN030CB
     FM282200 16009KT P6SM OVC050=



000
FTUS44 KOUN 280527
TAFOUN
TAF
KOUN 280527Z 2806/2906 17010KT P6SM FEW050 OVC250
      TEMPO 2811/2815 6SM -TSRA BKN030CB
     FM281500 22013KT P6SM OVC025
     FM281800 18013G18KT P6SM BKN030 PROB30 2818/2822 6SM -TSRA
      BKN030CB=



000
FTUS44 KOUN 280527
TAFSPS
TAF
KSPS 280527Z 2806/2906 16011KT P6SM FEW040 BKN120
      TEMPO 2810/2814 -TSRA BKN025CB
     FM281400 19015KT P6SM BKN030 PROB30 2818/2821 6SM -TSRA
      BKN030CB
     FM282200 16009KT P6SM OVC050=



000
FTUS44 KOUN 280527
TAFGAG
TAF
KGAG 280527Z 2806/2906 16012KT P6SM FEW030 OVC100
     FM281500 18014G20KT P6SM BKN030 PROB30 2818/2824 6SM -TSRA
      BKN015CB
     FM290000 18013KT P6SM OVC030=



000
FTUS44 KOUN 280527
TAFWWR
TAF
KWWR 280527Z 2806/2906 18011KT P6SM FEW030 OVC100
     FM281500 18014G20KT P6SM BKN030 PROB30 2818/2824 6SM -TSRA
      BKN015CB
     FM290000 18013KT P6SM OVC030=



000
FTUS44 KOUN 280527
TAFPNC
TAF
KPNC 280527Z 2806/2906 14006KT P6SM OVC030
      TEMPO 2806/2808 6SM -SHRA OVC030
     FM281500 15010KT P6SM BKN030 PROB30 2815/2820 6SM -TSRA
      BKN030CB=



000
FTUS44 KOUN 280527
TAFHBR
TAF
KHBR 280527Z 2806/2906 16011KT P6SM FEW025 BKN050 OVC100
      TEMPO 2806/2808 P6SM -RA FEW020 BKN030 OVC150
     FM280800 19012G18KT P6SM BKN030
      TEMPO 2808/2812 5SM -TSRA FEW020 BKN030CB OVC150
     FM281500 18012G16KT P6SM OVC030 PROB30 2817/2821 6SM -TSRA
      BKN030CB=



000
FTUS44 KOUN 280527
TAFOKC
TAF
KOKC 280527Z 2806/2906 17010KT P6SM FEW050 OVC250
      TEMPO 2810/2814 6SM -TSRA BKN030CB
     FM281400 22013KT P6SM OVC025
     FM281700 18013G18KT P6SM BKN030 PROB30 2817/2821 6SM -TSRA
      BKN030CB=



000
FTUS44 KOUN 280527
TAFLAW
TAF
KLAW 280527Z 2806/2906 15012KT P6SM FEW040 OVC120
      TEMPO 2809/2813 -TSRA BKN025CB
     FM281400 19015KT P6SM BKN030 PROB30 2817/2820 6SM -TSRA
      BKN030CB
     FM282100 15009KT P6SM OVC050=



000
FTUS44 KOUN 280527
TAFGAG
TAF
KGAG 280527Z 2806/2906 16012KT P6SM FEW030 OVC100
     FM281500 18014G20KT P6SM BKN030 PROB30 2818/2824 6SM -TSRA
      BKN015CB
     FM290000 18013KT P6SM OVC030=



000
FTUS44 KOUN 280527
TAFLAW
TAF
KLAW 280527Z 2806/2906 15012KT P6SM FEW040 OVC120
      TEMPO 2809/2813 -TSRA BKN025CB
     FM281400 19015KT P6SM BKN030 PROB30 2817/2820 6SM -TSRA
      BKN030CB
     FM282100 15009KT P6SM OVC050=



000
FTUS44 KOUN 280527
TAFOKC
TAF
KOKC 280527Z 2806/2906 17010KT P6SM FEW050 OVC250
      TEMPO 2810/2814 6SM -TSRA BKN030CB
     FM281400 22013KT P6SM OVC025
     FM281700 18013G18KT P6SM BKN030 PROB30 2817/2821 6SM -TSRA
      BKN030CB=



000
FTUS44 KOUN 280527
TAFHBR
TAF
KHBR 280527Z 2806/2906 16011KT P6SM FEW025 BKN050 OVC100
      TEMPO 2806/2808 P6SM -RA FEW020 BKN030 OVC150
     FM280800 19012G18KT P6SM BKN030
      TEMPO 2808/2812 5SM -TSRA FEW020 BKN030CB OVC150
     FM281500 18012G16KT P6SM OVC030 PROB30 2817/2821 6SM -TSRA
      BKN030CB=



000
FTUS44 KOUN 280527
TAFSPS
TAF
KSPS 280527Z 2806/2906 16011KT P6SM FEW040 BKN120
      TEMPO 2810/2814 -TSRA BKN025CB
     FM281400 19015KT P6SM BKN030 PROB30 2818/2821 6SM -TSRA
      BKN030CB
     FM282200 16009KT P6SM OVC050=



000
FTUS44 KOUN 280527
TAFPNC
TAF
KPNC 280527Z 2806/2906 14006KT P6SM OVC030
      TEMPO 2806/2808 6SM -SHRA OVC030
     FM281500 15010KT P6SM BKN030 PROB30 2815/2820 6SM -TSRA
      BKN030CB=



000
FTUS44 KOUN 280527
TAFWWR
TAF
KWWR 280527Z 2806/2906 18011KT P6SM FEW030 OVC100
     FM281500 18014G20KT P6SM BKN030 PROB30 2818/2824 6SM -TSRA
      BKN015CB
     FM290000 18013KT P6SM OVC030=



000
FTUS44 KOUN 280527
TAFSPS
TAF
KSPS 280527Z 2806/2906 16011KT P6SM FEW040 BKN120
      TEMPO 2810/2814 -TSRA BKN025CB
     FM281400 19015KT P6SM BKN030 PROB30 2818/2821 6SM -TSRA
      BKN030CB
     FM282200 16009KT P6SM OVC050=



000
FTUS44 KOUN 280527
TAFHBR
TAF
KHBR 280527Z 2806/2906 16011KT P6SM FEW025 BKN050 OVC100
      TEMPO 2806/2808 P6SM -RA FEW020 BKN030 OVC150
     FM280800 19012G18KT P6SM BKN030
      TEMPO 2808/2812 5SM -TSRA FEW020 BKN030CB OVC150
     FM281500 18012G16KT P6SM OVC030 PROB30 2817/2821 6SM -TSRA
      BKN030CB=



000
FTUS44 KOUN 280527
TAFOUN
TAF
KOUN 280527Z 2806/2906 17010KT P6SM FEW050 OVC250
      TEMPO 2811/2815 6SM -TSRA BKN030CB
     FM281500 22013KT P6SM OVC025
     FM281800 18013G18KT P6SM BKN030 PROB30 2818/2822 6SM -TSRA
      BKN030CB=



000
FTUS44 KOUN 280527
TAFOUN
TAF
KOUN 280527Z 2806/2906 17010KT P6SM FEW050 OVC250
      TEMPO 2811/2815 6SM -TSRA BKN030CB
     FM281500 22013KT P6SM OVC025
     FM281800 18013G18KT P6SM BKN030 PROB30 2818/2822 6SM -TSRA
      BKN030CB=



000
FTUS44 KOUN 280527
TAFOKC
TAF
KOKC 280527Z 2806/2906 17010KT P6SM FEW050 OVC250
      TEMPO 2810/2814 6SM -TSRA BKN030CB
     FM281400 22013KT P6SM OVC025
     FM281700 18013G18KT P6SM BKN030 PROB30 2817/2821 6SM -TSRA
      BKN030CB=



000
FTUS44 KOUN 280527
TAFHBR
TAF
KHBR 280527Z 2806/2906 16011KT P6SM FEW025 BKN050 OVC100
      TEMPO 2806/2808 P6SM -RA FEW020 BKN030 OVC150
     FM280800 19012G18KT P6SM BKN030
      TEMPO 2808/2812 5SM -TSRA FEW020 BKN030CB OVC150
     FM281500 18012G16KT P6SM OVC030 PROB30 2817/2821 6SM -TSRA
      BKN030CB=



000
FTUS44 KOUN 280527
TAFWWR
TAF
KWWR 280527Z 2806/2906 18011KT P6SM FEW030 OVC100
     FM281500 18014G20KT P6SM BKN030 PROB30 2818/2824 6SM -TSRA
      BKN015CB
     FM290000 18013KT P6SM OVC030=



000
FTUS44 KOUN 280527
TAFGAG
TAF
KGAG 280527Z 2806/2906 16012KT P6SM FEW030 OVC100
     FM281500 18014G20KT P6SM BKN030 PROB30 2818/2824 6SM -TSRA
      BKN015CB
     FM290000 18013KT P6SM OVC030=



000
FTUS44 KOUN 280527
TAFLAW
TAF
KLAW 280527Z 2806/2906 15012KT P6SM FEW040 OVC120
      TEMPO 2809/2813 -TSRA BKN025CB
     FM281400 19015KT P6SM BKN030 PROB30 2817/2820 6SM -TSRA
      BKN030CB
     FM282100 15009KT P6SM OVC050=



000
FTUS44 KOUN 280527
TAFPNC
TAF
KPNC 280527Z 2806/2906 14006KT P6SM OVC030
      TEMPO 2806/2808 6SM -SHRA OVC030
     FM281500 15010KT P6SM BKN030 PROB30 2815/2820 6SM -TSRA
      BKN030CB=



000
FTUS44 KOUN 280527
TAFPNC
TAF
KPNC 280527Z 2806/2906 14006KT P6SM OVC030
      TEMPO 2806/2808 6SM -SHRA OVC030
     FM281500 15010KT P6SM BKN030 PROB30 2815/2820 6SM -TSRA
      BKN030CB=



000
FTUS44 KOUN 280527
TAFLAW
TAF
KLAW 280527Z 2806/2906 15012KT P6SM FEW040 OVC120
      TEMPO 2809/2813 -TSRA BKN025CB
     FM281400 19015KT P6SM BKN030 PROB30 2817/2820 6SM -TSRA
      BKN030CB
     FM282100 15009KT P6SM OVC050=



000
FTUS44 KOUN 280527
TAFGAG
TAF
KGAG 280527Z 2806/2906 16012KT P6SM FEW030 OVC100
     FM281500 18014G20KT P6SM BKN030 PROB30 2818/2824 6SM -TSRA
      BKN015CB
     FM290000 18013KT P6SM OVC030=



000
FTUS44 KOUN 280527
TAFOKC
TAF
KOKC 280527Z 2806/2906 17010KT P6SM FEW050 OVC250
      TEMPO 2810/2814 6SM -TSRA BKN030CB
     FM281400 22013KT P6SM OVC025
     FM281700 18013G18KT P6SM BKN030 PROB30 2817/2821 6SM -TSRA
      BKN030CB=



000
FTUS44 KOUN 272320
TAFPNC
TAF
KPNC 272320Z 2800/2824 14012KT P6SM FEW040 SCT250
     FM280600 14006KT P6SM OVC030
      TEMPO 2806/2808 6SM -SHRA OVC030
     FM281500 15010KT P6SM BKN030 PROB30 2815/2820 -SHRA BKN030=



000
FTUS44 KOUN 272320
TAFLAW
TAF
KLAW 272320Z 2800/2824 17012KT P6SM FEW030 BKN050
      TEMPO 2800/2802 6SM TSRA BKN030CB
     FM280600 16011KT P6SM OVC025
      TEMPO 2810/2814 -SHRA BKN025
     FM281400 19015KT P6SM BKN030 PROB30 2814/2817 6SM -RA BKN030=



000
FTUS44 KOUN 272320
TAFOKC
TAF
KOKC 272320Z 2800/2824 17010KT P6SM FEW030 BKN050
      TEMPO 2806/2809 6SM -TSRA BKN050CB
     FM281100 22013KT P6SM OVC025
     FM281600 18013G18KT P6SM BKN030 PROB30 2818/2823 6SM -SHRA
      BKN030=



000
FTUS44 KOUN 272320
TAFLAW
TAF
KLAW 272320Z 2800/2824 17012KT P6SM FEW030 BKN050
      TEMPO 2800/2802 6SM TSRA BKN030CB
     FM280600 16011KT P6SM OVC025
      TEMPO 2810/2814 -SHRA BKN025
     FM281400 19015KT P6SM BKN030 PROB30 2814/2817 6SM -RA BKN030=



000
FTUS44 KOUN 272320
TAFPNC
TAF
KPNC 272320Z 2800/2824 14012KT P6SM FEW040 SCT250
     FM280600 14006KT P6SM OVC030
      TEMPO 2806/2808 6SM -SHRA OVC030
     FM281500 15010KT P6SM BKN030 PROB30 2815/2820 -SHRA BKN030=



000
FTUS44 KOUN 272320
TAFWWR
TAF
KWWR 272320Z 2800/2824 15014G23KT P6SM FEW035
      TEMPO 2800/2802 4SM TSRA BKN035CB
     FM280600 18011KT P6SM BKN025
     FM281500 18014G20KT P6SM SCT030=



000
FTUS44 KOUN 272320
TAFOKC
TAF
KOKC 272320Z 2800/2824 17010KT P6SM FEW030 BKN050
      TEMPO 2806/2809 6SM -TSRA BKN050CB
     FM281100 22013KT P6SM OVC025
     FM281600 18013G18KT P6SM BKN030 PROB30 2818/2823 6SM -SHRA
      BKN030=



000
FTUS44 KOUN 272320
TAFWWR
TAF
KWWR 272320Z 2800/2824 15014G23KT P6SM FEW035
      TEMPO 2800/2802 4SM TSRA BKN035CB
     FM280600 18011KT P6SM BKN025
     FM281500 18014G20KT P6SM SCT030=



000
FTUS44 KOUN 272320
TAFGAG
TAF
KGAG 272320Z 2800/2824 16014G23KT P6SM BKN100
      TEMPO 2800/2802 4SM TSRA BKN035CB
     FM280600 18011KT P6SM BKN025
     FM281500 18014G20KT P6SM SCT030=



000
FTUS44 KOUN 272320
TAFSPS
TAF
KSPS 272320Z 2800/2824 15015KT P6SM BKN035
      TEMPO 2800/2802 6SM TSRA BKN030CB
     FM280600 16011KT P6SM OVC025
      TEMPO 2809/2813 -SHRA BKN025
     FM281300 19015KT P6SM BKN030 PROB30 2813/2817 6SM -RA BKN030=



000
FTUS44 KOUN 272320
TAFOKC
TAF
KOKC 272320Z 2800/2824 17010KT P6SM FEW030 BKN050
      TEMPO 2806/2809 6SM -TSRA BKN050CB
     FM281100 22013KT P6SM OVC025
     FM281600 18013G18KT P6SM BKN030 PROB30 2818/2823 6SM -SHRA
      BKN030=



000
FTUS44 KOUN 272320
TAFWWR
TAF
KWWR 272320Z 2800/2824 15014G23KT P6SM FEW035
      TEMPO 2800/2802 4SM TSRA BKN035CB
     FM280600 18011KT P6SM BKN025
     FM281500 18014G20KT P6SM SCT030=



000
FTUS44 KOUN 272320
TAFGAG
TAF
KGAG 272320Z 2800/2824 16014G23KT P6SM BKN100
      TEMPO 2800/2802 4SM TSRA BKN035CB
     FM280600 18011KT P6SM BKN025
     FM281500 18014G20KT P6SM SCT030=



000
FTUS44 KOUN 272320
TAFLAW
TAF
KLAW 272320Z 2800/2824 17012KT P6SM FEW030 BKN050
      TEMPO 2800/2802 6SM TSRA BKN030CB
     FM280600 16011KT P6SM OVC025
      TEMPO 2810/2814 -SHRA BKN025
     FM281400 19015KT P6SM BKN030 PROB30 2814/2817 6SM -RA BKN030=



000
FTUS44 KOUN 272320
TAFOUN
TAF
KOUN 272320Z 2800/2824 17010KT P6SM BKN030
      TEMPO 2807/2810 6SM -TSRA BKN050CB
     FM281200 22013KT P6SM OVC025
     FM281700 18013G18KT P6SM BKN030 PROB30 2818/2823 6SM -SHRA
      BKN030=



000
FTUS44 KOUN 272320
TAFSPS
TAF
KSPS 272320Z 2800/2824 15015KT P6SM BKN035
      TEMPO 2800/2802 6SM TSRA BKN030CB
     FM280600 16011KT P6SM OVC025
      TEMPO 2809/2813 -SHRA BKN025
     FM281300 19015KT P6SM BKN030 PROB30 2813/2817 6SM -RA BKN030=



000
FTUS44 KOUN 272320
TAFHBR
TAF
KHBR 272320Z 2800/2824 18014G20KT P6SM SCT030
      TEMPO 2802/2804 6SM -TSRA BKN030CB
     FM280600 16011KT P6SM OVC025 PROB30 2811/2816 -SHRA BKN025
     FM281800 19012G18KT P6SM BKN030=



000
FTUS44 KOUN 272320
TAFWWR
TAF
KWWR 272320Z 2800/2824 15014G23KT P6SM FEW035
      TEMPO 2800/2802 4SM TSRA BKN035CB
     FM280600 18011KT P6SM BKN025
     FM281500 18014G20KT P6SM SCT030=



000
FTUS44 KOUN 272320
TAFHBR
TAF
KHBR 272320Z 2800/2824 18014G20KT P6SM SCT030
      TEMPO 2802/2804 6SM -TSRA BKN030CB
     FM280600 16011KT P6SM OVC025 PROB30 2811/2816 -SHRA BKN025
     FM281800 19012G18KT P6SM BKN030=



000
FTUS44 KOUN 272320
TAFOKC
TAF
KOKC 272320Z 2800/2824 17010KT P6SM FEW030 BKN050
      TEMPO 2806/2809 6SM -TSRA BKN050CB
     FM281100 22013KT P6SM OVC025
     FM281600 18013G18KT P6SM BKN030 PROB30 2818/2823 6SM -SHRA
      BKN030=



000
FTUS44 KOUN 272320
TAFLAW
TAF
KLAW 272320Z 2800/2824 17012KT P6SM FEW030 BKN050
      TEMPO 2800/2802 6SM TSRA BKN030CB
     FM280600 16011KT P6SM OVC025
      TEMPO 2810/2814 -SHRA BKN025
     FM281400 19015KT P6SM BKN030 PROB30 2814/2817 6SM -RA BKN030=



000
FTUS44 KOUN 272320
TAFHBR
TAF
KHBR 272320Z 2800/2824 18014G20KT P6SM SCT030
      TEMPO 2802/2804 6SM -TSRA BKN030CB
     FM280600 16011KT P6SM OVC025 PROB30 2811/2816 -SHRA BKN025
     FM281800 19012G18KT P6SM BKN030=



000
FTUS44 KOUN 272320
TAFPNC
TAF
KPNC 272320Z 2800/2824 14012KT P6SM FEW040 SCT250
     FM280600 14006KT P6SM OVC030
      TEMPO 2806/2808 6SM -SHRA OVC030
     FM281500 15010KT P6SM BKN030 PROB30 2815/2820 -SHRA BKN030=



000
FTUS44 KOUN 272320
TAFOUN
TAF
KOUN 272320Z 2800/2824 17010KT P6SM BKN030
      TEMPO 2807/2810 6SM -TSRA BKN050CB
     FM281200 22013KT P6SM OVC025
     FM281700 18013G18KT P6SM BKN030 PROB30 2818/2823 6SM -SHRA
      BKN030=



000
FTUS44 KOUN 272320
TAFOUN
TAF
KOUN 272320Z 2800/2824 17010KT P6SM BKN030
      TEMPO 2807/2810 6SM -TSRA BKN050CB
     FM281200 22013KT P6SM OVC025
     FM281700 18013G18KT P6SM BKN030 PROB30 2818/2823 6SM -SHRA
      BKN030=



000
FTUS44 KOUN 272320
TAFGAG
TAF
KGAG 272320Z 2800/2824 16014G23KT P6SM BKN100
      TEMPO 2800/2802 4SM TSRA BKN035CB
     FM280600 18011KT P6SM BKN025
     FM281500 18014G20KT P6SM SCT030=



000
FTUS44 KOUN 272320
TAFHBR
TAF
KHBR 272320Z 2800/2824 18014G20KT P6SM SCT030
      TEMPO 2802/2804 6SM -TSRA BKN030CB
     FM280600 16011KT P6SM OVC025 PROB30 2811/2816 -SHRA BKN025
     FM281800 19012G18KT P6SM BKN030=



000
FTUS44 KOUN 272320
TAFGAG
TAF
KGAG 272320Z 2800/2824 16014G23KT P6SM BKN100
      TEMPO 2800/2802 4SM TSRA BKN035CB
     FM280600 18011KT P6SM BKN025
     FM281500 18014G20KT P6SM SCT030=



000
FTUS44 KOUN 272320
TAFSPS
TAF
KSPS 272320Z 2800/2824 15015KT P6SM BKN035
      TEMPO 2800/2802 6SM TSRA BKN030CB
     FM280600 16011KT P6SM OVC025
      TEMPO 2809/2813 -SHRA BKN025
     FM281300 19015KT P6SM BKN030 PROB30 2813/2817 6SM -RA BKN030=



000
FTUS44 KOUN 272320
TAFPNC
TAF
KPNC 272320Z 2800/2824 14012KT P6SM FEW040 SCT250
     FM280600 14006KT P6SM OVC030
      TEMPO 2806/2808 6SM -SHRA OVC030
     FM281500 15010KT P6SM BKN030 PROB30 2815/2820 -SHRA BKN030=



000
FTUS44 KOUN 272320
TAFOUN
TAF
KOUN 272320Z 2800/2824 17010KT P6SM BKN030
      TEMPO 2807/2810 6SM -TSRA BKN050CB
     FM281200 22013KT P6SM OVC025
     FM281700 18013G18KT P6SM BKN030 PROB30 2818/2823 6SM -SHRA
      BKN030=



000
FTUS44 KOUN 271857 AAB
TAFOUN
TAF AMD
KOUN 271857Z 2719/2818 17010KT P6SM BKN030
     FM280900 16011KT P6SM OVC025
     FM281500 16015KT P6SM BKN030=



000
FTUS44 KOUN 271857 AAB
TAFOUN
TAF AMD
KOUN 271857Z 2719/2818 17010KT P6SM BKN030
     FM280900 16011KT P6SM OVC025
     FM281500 16015KT P6SM BKN030=



000
FTUS44 KOUN 271857 AAA
TAFOKC
TAF AMD
KOKC 271857Z 2719/2818 17010KT P6SM BKN030
     FM280900 16011KT P6SM OVC025
     FM281500 16015KT P6SM BKN030=



000
FTUS44 KOUN 271857 AAA
TAFOKC
TAF AMD
KOKC 271857Z 2719/2818 17010KT P6SM BKN030
     FM280900 16011KT P6SM OVC025
     FM281500 16015KT P6SM BKN030=



000
FTUS44 KOUN 271857 AAA
TAFOKC
TAF AMD
KOKC 271857Z 2719/2818 17010KT P6SM BKN030
     FM280900 16011KT P6SM OVC025
     FM281500 16015KT P6SM BKN030=



000
FTUS44 KOUN 271733
TAFPNC
TAF
KPNC 271733Z 2718/2818 15009KT P6SM FEW030
     FM272200 17012KT P6SM BKN040
     FM280600 14006KT P6SM OVC030
     FM281500 15010KT P6SM BKN030=



000
FTUS44 KOUN 271733
TAFSPS
TAF
KSPS 271733Z 2718/2818 16012KT P6SM BKN040
     FM272100 15015KT P6SM BKN035
     FM280600 14008KT P6SM OVC025
     FM281500 19012KT P6SM BKN030=



000
FTUS44 KOUN 271733
TAFOUN
TAF
KOUN 271733Z 2718/2818 17010KT P6SM BKN030
      TEMPO 2718/2721 2SM TSRA BKN035CB
     FM280900 16011KT P6SM OVC025
     FM281500 16015KT P6SM BKN030=



000
FTUS44 KOUN 271733
TAFLAW
TAF
KLAW 271733Z 2718/2818 17012KT P6SM BKN040
      TEMPO 2723/2803 2SM TSRA BKN030CB
     FM280600 16011KT P6SM OVC025
     FM281500 19015KT P6SM BKN030=



000
FTUS44 KOUN 271733
TAFGAG
TAF
KGAG 271733Z 2718/2818 16014G23KT P6SM FEW035
      TEMPO 2721/2801 2SM TSRA BKN035CB
     FM280600 18011KT P6SM BKN025
     FM281500 18014G20KT P6SM SCT030=



000
FTUS44 KOUN 271733
TAFHBR
TAF
KHBR 271733Z 2718/2818 18014G20KT P6SM SCT030
      TEMPO 2723/2803 2SM TSRA BKN030CB
     FM280300 13011KT P6SM BKN030=



000
FTUS44 KOUN 271733
TAFPNC
TAF
KPNC 271733Z 2718/2818 15009KT P6SM FEW030
     FM272200 17012KT P6SM BKN040
     FM280600 14006KT P6SM OVC030
     FM281500 15010KT P6SM BKN030=



000
FTUS44 KOUN 271733
TAFOKC
TAF
KOKC 271733Z 2718/2818 17010KT P6SM BKN030
      TEMPO 2718/2721 2SM TSRA BKN035CB
     FM280900 16011KT P6SM OVC025
     FM281500 16015KT P6SM BKN030=



000
FTUS44 KOUN 271733
TAFWWR
TAF
KWWR 271733Z 2718/2818 14014G23KT P6SM FEW035
      TEMPO 2721/2801 2SM TSRA BKN035CB
     FM280600 18011KT P6SM BKN025
     FM281500 18014G20KT P6SM SCT030=



000
FTUS44 KOUN 271733
TAFLAW
TAF
KLAW 271733Z 2718/2818 17012KT P6SM BKN040
      TEMPO 2723/2803 2SM TSRA BKN030CB
     FM280600 16011KT P6SM OVC025
     FM281500 19015KT P6SM BKN030=



000
FTUS44 KOUN 271733
TAFSPS
TAF
KSPS 271733Z 2718/2818 16012KT P6SM BKN040
     FM272100 15015KT P6SM BKN035
     FM280600 14008KT P6SM OVC025
     FM281500 19012KT P6SM BKN030=



000
FTUS44 KOUN 271733
TAFHBR
TAF
KHBR 271733Z 2718/2818 18014G20KT P6SM SCT030
      TEMPO 2723/2803 2SM TSRA BKN030CB
     FM280300 13011KT P6SM BKN030=



000
FTUS44 KOUN 271733
TAFHBR
TAF
KHBR 271733Z 2718/2818 18014G20KT P6SM SCT030
      TEMPO 2723/2803 2SM TSRA BKN030CB
     FM280300 13011KT P6SM BKN030=



000
FTUS44 KOUN 271733
TAFPNC
TAF
KPNC 271733Z 2718/2818 15009KT P6SM FEW030
     FM272200 17012KT P6SM BKN040
     FM280600 14006KT P6SM OVC030
     FM281500 15010KT P6SM BKN030=



000
FTUS44 KOUN 271733
TAFGAG
TAF
KGAG 271733Z 2718/2818 16014G23KT P6SM FEW035
      TEMPO 2721/2801 2SM TSRA BKN035CB
     FM280600 18011KT P6SM BKN025
     FM281500 18014G20KT P6SM SCT030=



000
FTUS44 KOUN 271733
TAFWWR
TAF
KWWR 271733Z 2718/2818 14014G23KT P6SM FEW035
      TEMPO 2721/2801 2SM TSRA BKN035CB
     FM280600 18011KT P6SM BKN025
     FM281500 18014G20KT P6SM SCT030=



000
FTUS44 KOUN 271733
TAFOUN
TAF
KOUN 271733Z 2718/2818 17010KT P6SM BKN030
      TEMPO 2718/2721 2SM TSRA BKN035CB
     FM280900 16011KT P6SM OVC025
     FM281500 16015KT P6SM BKN030=



000
FTUS44 KOUN 271733
TAFOKC
TAF
KOKC 271733Z 2718/2818 17010KT P6SM BKN030
      TEMPO 2718/2721 2SM TSRA BKN035CB
     FM280900 16011KT P6SM OVC025
     FM281500 16015KT P6SM BKN030=



000
FTUS44 KOUN 271733
TAFSPS
TAF
KSPS 271733Z 2718/2818 16012KT P6SM BKN040
     FM272100 15015KT P6SM BKN035
     FM280600 14008KT P6SM OVC025
     FM281500 19012KT P6SM BKN030=



000
FTUS44 KOUN 271733
TAFWWR
TAF
KWWR 271733Z 2718/2818 14014G23KT P6SM FEW035
      TEMPO 2721/2801 2SM TSRA BKN035CB
     FM280600 18011KT P6SM BKN025
     FM281500 18014G20KT P6SM SCT030=



000
FTUS44 KOUN 271733
TAFLAW
TAF
KLAW 271733Z 2718/2818 17012KT P6SM BKN040
      TEMPO 2723/2803 2SM TSRA BKN030CB
     FM280600 16011KT P6SM OVC025
     FM281500 19015KT P6SM BKN030=



000
FTUS44 KOUN 271733
TAFOKC
TAF
KOKC 271733Z 2718/2818 17010KT P6SM BKN030
      TEMPO 2718/2721 2SM TSRA BKN035CB
     FM280900 16011KT P6SM OVC025
     FM281500 16015KT P6SM BKN030=



000
FTUS44 KOUN 271733
TAFPNC
TAF
KPNC 271733Z 2718/2818 15009KT P6SM FEW030
     FM272200 17012KT P6SM BKN040
     FM280600 14006KT P6SM OVC030
     FM281500 15010KT P6SM BKN030=



000
FTUS44 KOUN 271733
TAFOUN
TAF
KOUN 271733Z 2718/2818 17010KT P6SM BKN030
      TEMPO 2718/2721 2SM TSRA BKN035CB
     FM280900 16011KT P6SM OVC025
     FM281500 16015KT P6SM BKN030=



000
FTUS44 KOUN 271733
TAFGAG
TAF
KGAG 271733Z 2718/2818 16014G23KT P6SM FEW035
      TEMPO 2721/2801 2SM TSRA BKN035CB
     FM280600 18011KT P6SM BKN025
     FM281500 18014G20KT P6SM SCT030=



000
FTUS44 KOUN 271733
TAFGAG
TAF
KGAG 271733Z 2718/2818 16014G23KT P6SM FEW035
      TEMPO 2721/2801 2SM TSRA BKN035CB
     FM280600 18011KT P6SM BKN025
     FM281500 18014G20KT P6SM SCT030=



000
FTUS44 KOUN 271733
TAFOUN
TAF
KOUN 271733Z 2718/2818 17010KT P6SM BKN030
      TEMPO 2718/2721 2SM TSRA BKN035CB
     FM280900 16011KT P6SM OVC025
     FM281500 16015KT P6SM BKN030=



000
FTUS44 KOUN 271733
TAFOKC
TAF
KOKC 271733Z 2718/2818 17010KT P6SM BKN030
      TEMPO 2718/2721 2SM TSRA BKN035CB
     FM280900 16011KT P6SM OVC025
     FM281500 16015KT P6SM BKN030=



000
FTUS44 KOUN 271733
TAFWWR
TAF
KWWR 271733Z 2718/2818 14014G23KT P6SM FEW035
      TEMPO 2721/2801 2SM TSRA BKN035CB
     FM280600 18011KT P6SM BKN025
     FM281500 18014G20KT P6SM SCT030=



000
FTUS44 KOUN 271408 AAB
TAFOUN
TAF AMD
KOUN 271408Z 2714/2812 18010KT P6SM SCT025
      TEMPO 2714/2716 BKN025
     FM271800 17012KT P6SM BKN035
     FM280000 16011KT P6SM OVC050=



000
FTUS44 KOUN 271408 AAB
TAFOUN
TAF AMD
KOUN 271408Z 2714/2812 18010KT P6SM SCT025
      TEMPO 2714/2716 BKN025
     FM271800 17012KT P6SM BKN035
     FM280000 16011KT P6SM OVC050=



000
FTUS44 KOUN 271407 AAA
TAFOKC
TAF AMD
KOKC 271407Z 2714/2812 18010KT P6SM SCT025
      TEMPO 2714/2716 BKN025
     FM271800 17012KT P6SM BKN035
     FM280000 16011KT P6SM OVC050=



000
FTUS44 KOUN 271407 AAA
TAFOKC
TAF AMD
KOKC 271407Z 2714/2812 18010KT P6SM SCT025
      TEMPO 2714/2716 BKN025
     FM271800 17012KT P6SM BKN035
     FM280000 16011KT P6SM OVC050=



000
FTUS44 KOUN 271406 AAB
TAFPNC
TAF AMD
KPNC 271406Z 2714/2812 03006KT P6SM BKN005 BKN200
      TEMPO 2714/2715 1/2SM FG BKN003
     FM271500 16009KT P6SM SCT006 SCT060
     FM272200 17012KT P6SM BKN040 PROB30 2800/2806 3SM TSRA BKN025CB
      OVC070=



000
FTUS44 KOUN 271406 AAB
TAFPNC
TAF AMD
KPNC 271406Z 2714/2812 03006KT P6SM BKN005 BKN200
      TEMPO 2714/2715 1/2SM FG BKN003
     FM271500 16009KT P6SM SCT006 SCT060
     FM272200 17012KT P6SM BKN040 PROB30 2800/2806 3SM TSRA BKN025CB
      OVC070=



000
FTUS44 KOUN 271245 AAA
TAFPNC
TAF AMD
KPNC 271245Z 2713/2812 03006KT P6SM SCT005 BKN200
      TEMPO 2713/2715 BKN005
     FM271600 16009KT P6SM OVC100
     FM272200 17012KT P6SM BKN040 PROB30 2800/2806 3SM TSRA BKN025CB
      OVC070=



000
FTUS44 KOUN 271245 AAA
TAFPNC
TAF AMD
KPNC 271245Z 2713/2812 03006KT P6SM SCT005 BKN200
      TEMPO 2713/2715 BKN005
     FM271600 16009KT P6SM OVC100
     FM272200 17012KT P6SM BKN040 PROB30 2800/2806 3SM TSRA BKN025CB
      OVC070=



000
FTUS44 KOUN 271131
TAFLAW
TAF
KLAW 271131Z 2712/2812 VRB03KT P6SM FEW050 BKN070
      TEMPO 2712/2713 5SM TSRA BKN050CB
     FM271600 17012KT P6SM BKN040
     FM272100 15015KT P6SM OVC035 PROB30 2721/2724 3SM TSRA BKN025CB
      OVC050
     FM280000 11008KT P6SM OVC030 PROB30 2800/2805 2SM TSRA BKN015CB
      OVC040=



000
FTUS44 KOUN 271131
TAFPNC
TAF
KPNC 271131Z 2712/2812 03006KT P6SM BKN200
     FM271600 16009KT P6SM OVC100
     FM272200 17012KT P6SM BKN040 PROB30 2800/2806 3SM TSRA BKN025CB
      OVC070=



000
FTUS44 KOUN 271131
TAFGAG
TAF
KGAG 271131Z 2712/2812 VRB03KT P6SM VCSH BKN120
     FM271500 18010KT P6SM BKN080
     FM271900 18014G23KT P6SM BKN080 BKN120
     FM280000 15011KT P6SM BKN025 PROB30 2800/2806 2SM TSRA BKN025CB
      OVC050=



000
FTUS44 KOUN 271131
TAFWWR
TAF
KWWR 271131Z 2712/2812 VRB06KT P6SM VCSH BKN120
     FM271400 17010KT P6SM SCT015 BKN080
     FM271900 18014G23KT P6SM BKN080 BKN120
     FM280000 15011KT P6SM BKN025 PROB30 2800/2806 2SM TSRA BKN025CB
      OVC050=



000
FTUS44 KOUN 271131
TAFSPS
TAF
KSPS 271131Z 2712/2812 VRB04KT P6SM VCTS FEW040CB BKN150
     FM271600 18012KT P6SM BKN040
     FM272100 15015KT P6SM OVC035 PROB30 2721/2724 3SM TSRA BKN025CB
      OVC050
     FM280000 11008KT P6SM OVC030 PROB30 2800/2805 2SM TSRA BKN015CB
      OVC040=



000
FTUS44 KOUN 271131
TAFHBR
TAF
KHBR 271131Z 2712/2812 VRB05KT P6SM VCSH SCT070
     FM271500 19010G15KT P6SM BKN040
     FM271800 18014G20KT P6SM BKN250 PROB30 2721/2724 3SM TSRA
      BKN030CB BKN090
     FM280000 13011KT P6SM OVC040 PROB30 2800/2806 2SM TSRA BKN025CB
      OVC060=



000
FTUS44 KOUN 271131
TAFHBR
TAF
KHBR 271131Z 2712/2812 VRB05KT P6SM VCSH SCT070
     FM271500 19010G15KT P6SM BKN040
     FM271800 18014G20KT P6SM BKN250 PROB30 2721/2724 3SM TSRA
      BKN030CB BKN090
     FM280000 13011KT P6SM OVC040 PROB30 2800/2806 2SM TSRA BKN025CB
      OVC060=



000
FTUS44 KOUN 271131
TAFOUN
TAF
KOUN 271131Z 2712/2812 15008KT 3SM BR SCT004
      TEMPO 2712/2713 1/2SM FG VV002
     FM271400 18010KT P6SM BKN060
     FM271800 17012KT P6SM BKN035
     FM280000 16011KT P6SM OVC050=



000
FTUS44 KOUN 271131
TAFOKC
TAF
KOKC 271131Z 2712/2812 15010KT 3SM BR SCT003
      TEMPO 2712/2713 1/2SM FG VV002
     FM271400 18010KT P6SM BKN060
     FM271800 17012KT P6SM BKN035
     FM280000 16011KT P6SM OVC050=



000
FTUS44 KOUN 271131
TAFSPS
TAF
KSPS 271131Z 2712/2812 VRB04KT P6SM VCTS FEW040CB BKN150
     FM271600 18012KT P6SM BKN040
     FM272100 15015KT P6SM OVC035 PROB30 2721/2724 3SM TSRA BKN025CB
      OVC050
     FM280000 11008KT P6SM OVC030 PROB30 2800/2805 2SM TSRA BKN015CB
      OVC040=



000
FTUS44 KOUN 271033 AAB
TAFOUN
TAF AMD
KOUN 271033Z 2711/2806 15008KT 3SM BR BKN004
      TEMPO 2711/2714 1/2SM FG VV002
     FM271400 18010KT P6SM BKN060
     FM271800 17012KT P6SM BKN035
     FM280000 14011KT P6SM OVC050=



000
FTUS44 KOUN 271033 AAB
TAFOUN
TAF AMD
KOUN 271033Z 2711/2806 15008KT 3SM BR BKN004
      TEMPO 2711/2714 1/2SM FG VV002
     FM271400 18010KT P6SM BKN060
     FM271800 17012KT P6SM BKN035
     FM280000 14011KT P6SM OVC050=



000
FTUS44 KOUN 271032 AAA
TAFOKC
TAF AMD
KOKC 271032Z 2711/2806 15010KT 3SM BR BKN003
      TEMPO 2711/2714 1/2SM FG VV002
     FM271400 18010KT P6SM BKN060
     FM271800 17012KT P6SM BKN035
     FM280000 14011KT P6SM OVC050=



000
FTUS44 KOUN 270522
TAFGAG
TAF
KGAG 270522Z 2706/2806 14008KT P6SM SCT050 BKN250
     FM270900 16005KT 5SM BR BKN015
     FM271500 18012KT P6SM SCT015 BKN080
     FM271900 18014G23KT P6SM BKN080 BKN120 PROB30 2719/2724 P6SM
      -TSRA BKN015CB
     FM280000 15016KT P6SM BKN025 PROB30 2800/2806 2SM TSRA BKN025CB
      OVC050=



000
FTUS44 KOUN 270522
TAFPNC
TAF
KPNC 270522Z 2706/2806 15006KT P6SM BKN100
     FM271600 16009KT P6SM OVC100 PROB30 2718/2722 P6SM -TSRA
      BKN015CB
     FM272200 17012KT P6SM BKN040 PROB30 2800/2806 3SM TSRA BKN025CB
      OVC070=



000
FTUS44 KOUN 270522
TAFWWR
TAF
KWWR 270522Z 2706/2806 15007KT P6SM SCT050 BKN250
     FM270900 16005KT 4SM BR BKN015
     FM271400 17012KT P6SM SCT015 BKN080
     FM271900 18014G23KT P6SM BKN080 BKN120 PROB30 2719/2724 P6SM
      -TSRA BKN015CB
     FM280000 15016KT P6SM BKN025 PROB30 2800/2806 2SM TSRA BKN025CB
      OVC050=



000
FTUS44 KOUN 270522
TAFOKC
TAF
KOKC 270522Z 2706/2806 15007KT P6SM SCT020 OVC090
     FM271000 15010KT P6SM BKN040
      TEMPO 2710/2714 3SM BR BKN010
     FM271400 18010KT P6SM BKN060
     FM271800 17012KT P6SM BKN035 PROB30 2719/2724 2SM TSRA BKN035CB
     FM280000 14011KT P6SM OVC050=



000
FTUS44 KOUN 270522
TAFGAG
TAF
KGAG 270522Z 2706/2806 14008KT P6SM SCT050 BKN250
     FM270900 16005KT 5SM BR BKN015
     FM271500 18012KT P6SM SCT015 BKN080
     FM271900 18014G23KT P6SM BKN080 BKN120 PROB30 2719/2724 P6SM
      -TSRA BKN015CB
     FM280000 15016KT P6SM BKN025 PROB30 2800/2806 2SM TSRA BKN025CB
      OVC050=



000
FTUS44 KOUN 270522
TAFOUN
TAF
KOUN 270522Z 2706/2806 16008KT P6SM SCT040 BKN250
     FM271000 15008KT P6SM BKN040
      TEMPO 2710/2714 3SM BR BKN010
     FM271400 18010KT P6SM BKN060
     FM271800 17012KT P6SM BKN035 PROB30 2719/2724 2SM TSRA BKN035CB
     FM280000 14011KT P6SM OVC050=



000
FTUS44 KOUN 270522
TAFLAW
TAF
KLAW 270522Z 2706/2806 13007KT P6SM FEW025 BKN200
     FM271600 17012KT P6SM BKN040
     FM272100 12015KT P6SM OVC035 PROB30 2721/2724 3SM TSRA BKN025CB
      OVC050
     FM280000 11018KT P6SM OVC030 PROB30 2800/2805 2SM TSRA BKN015CB
      OVC040=



000
FTUS44 KOUN 270522
TAFSPS
TAF
KSPS 270522Z 2706/2806 17010KT P6SM FEW040 BKN150
     FM271600 18012KT P6SM BKN040
     FM272100 12015KT P6SM OVC035 PROB30 2721/2724 3SM TSRA BKN025CB
      OVC050
     FM280000 11018KT P6SM OVC030 PROB30 2800/2805 2SM TSRA BKN015CB
      OVC040=



000
FTUS44 KOUN 270522
TAFHBR
TAF
KHBR 270522Z 2706/2806 19007KT P6SM SCT070 BKN250
     FM270800 16010KT 5SM BR BKN015
     FM271400 19013G18KT P6SM BKN040
     FM271800 18014G20KT P6SM BKN250 PROB30 2721/2724 3SM TSRA
      BKN030CB BKN090
     FM280000 13017KT P6SM OVC040 PROB30 2800/2806 2SM TSRA BKN025CB
      OVC060=



000
FTUS44 KOUN 270522
TAFOKC
TAF
KOKC 270522Z 2706/2806 15007KT P6SM SCT020 OVC090
     FM271000 15010KT P6SM BKN040
      TEMPO 2710/2714 3SM BR BKN010
     FM271400 18010KT P6SM BKN060
     FM271800 17012KT P6SM BKN035 PROB30 2719/2724 2SM TSRA BKN035CB
     FM280000 14011KT P6SM OVC050=



000
FTUS44 KOUN 270522
TAFLAW
TAF
KLAW 270522Z 2706/2806 13007KT P6SM FEW025 BKN200
     FM271600 17012KT P6SM BKN040
     FM272100 12015KT P6SM OVC035 PROB30 2721/2724 3SM TSRA BKN025CB
      OVC050
     FM280000 11018KT P6SM OVC030 PROB30 2800/2805 2SM TSRA BKN015CB
      OVC040=



000
FTUS44 KOUN 270522
TAFOUN
TAF
KOUN 270522Z 2706/2806 16008KT P6SM SCT040 BKN250
     FM271000 15008KT P6SM BKN040
      TEMPO 2710/2714 3SM BR BKN010
     FM271400 18010KT P6SM BKN060
     FM271800 17012KT P6SM BKN035 PROB30 2719/2724 2SM TSRA BKN035CB
     FM280000 14011KT P6SM OVC050=



000
FTUS44 KOUN 270522
TAFWWR
TAF
KWWR 270522Z 2706/2806 15007KT P6SM SCT050 BKN250
     FM270900 16005KT 4SM BR BKN015
     FM271400 17012KT P6SM SCT015 BKN080
     FM271900 18014G23KT P6SM BKN080 BKN120 PROB30 2719/2724 P6SM
      -TSRA BKN015CB
     FM280000 15016KT P6SM BKN025 PROB30 2800/2806 2SM TSRA BKN025CB
      OVC050=



000
FTUS44 KOUN 270522
TAFSPS
TAF
KSPS 270522Z 2706/2806 17010KT P6SM FEW040 BKN150
     FM271600 18012KT P6SM BKN040
     FM272100 12015KT P6SM OVC035 PROB30 2721/2724 3SM TSRA BKN025CB
      OVC050
     FM280000 11018KT P6SM OVC030 PROB30 2800/2805 2SM TSRA BKN015CB
      OVC040=



000
FTUS44 KOUN 270522
TAFHBR
TAF
KHBR 270522Z 2706/2806 19007KT P6SM SCT070 BKN250
     FM270800 16010KT 5SM BR BKN015
     FM271400 19013G18KT P6SM BKN040
     FM271800 18014G20KT P6SM BKN250 PROB30 2721/2724 3SM TSRA
      BKN030CB BKN090
     FM280000 13017KT P6SM OVC040 PROB30 2800/2806 2SM TSRA BKN025CB
      OVC060=



000
FTUS44 KOUN 270522
TAFGAG
TAF
KGAG 270522Z 2706/2806 14008KT P6SM SCT050 BKN250
     FM270900 16005KT 5SM BR BKN015
     FM271500 18012KT P6SM SCT015 BKN080
     FM271900 18014G23KT P6SM BKN080 BKN120 PROB30 2719/2724 P6SM
      -TSRA BKN015CB
     FM280000 15016KT P6SM BKN025 PROB30 2800/2806 2SM TSRA BKN025CB
      OVC050=



000
FTUS44 KOUN 270522
TAFOUN
TAF
KOUN 270522Z 2706/2806 16008KT P6SM SCT040 BKN250
     FM271000 15008KT P6SM BKN040
      TEMPO 2710/2714 3SM BR BKN010
     FM271400 18010KT P6SM BKN060
     FM271800 17012KT P6SM BKN035 PROB30 2719/2724 2SM TSRA BKN035CB
     FM280000 14011KT P6SM OVC050=



000
FTUS44 KOUN 270522
TAFHBR
TAF
KHBR 270522Z 2706/2806 19007KT P6SM SCT070 BKN250
     FM270800 16010KT 5SM BR BKN015
     FM271400 19013G18KT P6SM BKN040
     FM271800 18014G20KT P6SM BKN250 PROB30 2721/2724 3SM TSRA
      BKN030CB BKN090
     FM280000 13017KT P6SM OVC040 PROB30 2800/2806 2SM TSRA BKN025CB
      OVC060=



000
FTUS44 KOUN 270522
TAFLAW
TAF
KLAW 270522Z 2706/2806 13007KT P6SM FEW025 BKN200
     FM271600 17012KT P6SM BKN040
     FM272100 12015KT P6SM OVC035 PROB30 2721/2724 3SM TSRA BKN025CB
      OVC050
     FM280000 11018KT P6SM OVC030 PROB30 2800/2805 2SM TSRA BKN015CB
      OVC040=



000
FTUS44 KOUN 270522
TAFPNC
TAF
KPNC 270522Z 2706/2806 15006KT P6SM BKN100
     FM271600 16009KT P6SM OVC100 PROB30 2718/2722 P6SM -TSRA
      BKN015CB
     FM272200 17012KT P6SM BKN040 PROB30 2800/2806 3SM TSRA BKN025CB
      OVC070=



000
FTUS44 KOUN 270522
TAFPNC
TAF
KPNC 270522Z 2706/2806 15006KT P6SM BKN100
     FM271600 16009KT P6SM OVC100 PROB30 2718/2722 P6SM -TSRA
      BKN015CB
     FM272200 17012KT P6SM BKN040 PROB30 2800/2806 3SM TSRA BKN025CB
      OVC070=



000
FTUS44 KOUN 270522
TAFWWR
TAF
KWWR 270522Z 2706/2806 15007KT P6SM SCT050 BKN250
     FM270900 16005KT 4SM BR BKN015
     FM271400 17012KT P6SM SCT015 BKN080
     FM271900 18014G23KT P6SM BKN080 BKN120 PROB30 2719/2724 P6SM
      -TSRA BKN015CB
     FM280000 15016KT P6SM BKN025 PROB30 2800/2806 2SM TSRA BKN025CB
      OVC050=



000
FTUS44 KOUN 270522
TAFSPS
TAF
KSPS 270522Z 2706/2806 17010KT P6SM FEW040 BKN150
     FM271600 18012KT P6SM BKN040
     FM272100 12015KT P6SM OVC035 PROB30 2721/2724 3SM TSRA BKN025CB
      OVC050
     FM280000 11018KT P6SM OVC030 PROB30 2800/2805 2SM TSRA BKN015CB
      OVC040=



000
FTUS44 KOUN 270522
TAFOKC
TAF
KOKC 270522Z 2706/2806 15007KT P6SM SCT020 OVC090
     FM271000 15010KT P6SM BKN040
      TEMPO 2710/2714 3SM BR BKN010
     FM271400 18010KT P6SM BKN060
     FM271800 17012KT P6SM BKN035 PROB30 2719/2724 2SM TSRA BKN035CB
     FM280000 14011KT P6SM OVC050=



000
FTUS44 KOUN 270228 AAA
TAFOKC
TAF AMD
KOKC 270228Z 2702/2724 15009KT P6SM SCT020 BKN040 OVC090
      TEMPO 2702/2705 VRB30KT 2SM TSRA BKN020 OVC035CB
     FM271000 15010KT P6SM BKN040
      TEMPO 2710/2714 3SM BR BKN010
     FM271400 18010KT P6SM BKN080=



000
FTUS44 KOUN 270228 AAA
TAFOKC
TAF AMD
KOKC 270228Z 2702/2724 15009KT P6SM SCT020 BKN040 OVC090
      TEMPO 2702/2705 VRB30KT 2SM TSRA BKN020 OVC035CB
     FM271000 15010KT P6SM BKN040
      TEMPO 2710/2714 3SM BR BKN010
     FM271400 18010KT P6SM BKN080=



000
FTUS44 KOUN 262320
TAFGAG
TAF
KGAG 262320Z 2700/2724 14008KT P6SM SCT050 SCT250
     FM270900 16005KT 5SM BR BKN015
     FM271500 18012KT P6SM SCT015 BKN080
     FM271900 18014G23KT P6SM SCT120=



000
FTUS44 KOUN 262320
TAFOUN
TAF
KOUN 262320Z 2700/2724 14008KT P6SM SCT040 BKN250
      TEMPO 2701/2703 5SM -TSRA SCT040 BKN080CB
     FM271000 15008KT P6SM BKN040
      TEMPO 2710/2714 3SM BR BKN010
     FM271400 18009KT P6SM BKN080=



000
FTUS44 KOUN 262320
TAFPNC
TAF
KPNC 262320Z 2700/2724 15008KT P6SM BKN100
     FM271600 16009KT P6SM OVC100 PROB30 2718/2722 P6SM -TSRA
      BKN015CB=



000
FTUS44 KOUN 262320
TAFPNC
TAF
KPNC 262320Z 2700/2724 15008KT P6SM BKN100
     FM271600 16009KT P6SM OVC100 PROB30 2718/2722 P6SM -TSRA
      BKN015CB=



000
FTUS44 KOUN 262320
TAFHBR
TAF
KHBR 262320Z 2700/2724 17016G22KT P6SM SCT050
     FM270200 17012KT P6SM FEW060 BKN250
     FM270800 16010KT 5SM BR BKN015
     FM271400 19013G18KT P6SM BKN040
     FM271700 18014G20KT P6SM BKN250=



000
FTUS44 KOUN 262320
TAFOUN
TAF
KOUN 262320Z 2700/2724 14008KT P6SM SCT040 BKN250
      TEMPO 2701/2703 5SM -TSRA SCT040 BKN080CB
     FM271000 15008KT P6SM BKN040
      TEMPO 2710/2714 3SM BR BKN010
     FM271400 18009KT P6SM BKN080=



000
FTUS44 KOUN 262320
TAFOKC
TAF
KOKC 262320Z 2700/2724 15009KT P6SM SCT040 BKN250
      TEMPO 2701/2703 5SM -TSRA SCT040 BKN080CB
     FM271000 15010KT P6SM BKN040
      TEMPO 2710/2714 3SM BR BKN010
     FM271400 18010KT P6SM BKN080=



000
FTUS44 KOUN 262320
TAFGAG
TAF
KGAG 262320Z 2700/2724 14008KT P6SM SCT050 SCT250
     FM270900 16005KT 5SM BR BKN015
     FM271500 18012KT P6SM SCT015 BKN080
     FM271900 18014G23KT P6SM SCT120=



000
FTUS44 KOUN 262320
TAFLAW
TAF
KLAW 262320Z 2700/2724 13012KT P6SM SCT040 BKN080
      TEMPO 2700/2702 5SM -TSRA OVC025CB
     FM270300 13010KT P6SM OVC025
     FM271600 17012KT P6SM BKN040=



000
FTUS44 KOUN 262320
TAFWWR
TAF
KWWR 262320Z 2700/2724 18007KT P6SM SCT050 SCT250
     FM270900 16005KT 4SM BR BKN015
     FM271400 17012KT P6SM SCT015 BKN080
     FM271800 18013G20KT P6SM SCT120=



000
FTUS44 KOUN 262320
TAFHBR
TAF
KHBR 262320Z 2700/2724 17016G22KT P6SM SCT050
     FM270200 17012KT P6SM FEW060 BKN250
     FM270800 16010KT 5SM BR BKN015
     FM271400 19013G18KT P6SM BKN040
     FM271700 18014G20KT P6SM BKN250=



000
FTUS44 KOUN 262320
TAFOKC
TAF
KOKC 262320Z 2700/2724 15009KT P6SM SCT040 BKN250
      TEMPO 2701/2703 5SM -TSRA SCT040 BKN080CB
     FM271000 15010KT P6SM BKN040
      TEMPO 2710/2714 3SM BR BKN010
     FM271400 18010KT P6SM BKN080=



000
FTUS44 KOUN 262320
TAFHBR
TAF
KHBR 262320Z 2700/2724 17016G22KT P6SM SCT050
     FM270800 16010KT 5SM BR BKN015
     FM271400 19013G18KT P6SM BKN040
     FM271700 18014G20KT P6SM BKN250=



000
FTUS44 KOUN 262320
TAFLAW
TAF
KLAW 262320Z 2700/2724 13012KT P6SM SCT040 BKN080
      TEMPO 2700/2702 5SM -TSRA OVC025CB
     FM270300 13010KT P6SM OVC025
     FM271600 17012KT P6SM BKN040=



000
FTUS44 KOUN 262320
TAFSPS
TAF
KSPS 262320Z 2700/2724 16014G20KT 6SM -TSRA FEW025 SCT030CB
      TEMPO 2700/2702 2SM -TSRA FEW015 BKN030CB
     FM270300 17010KT P6SM BKN040
     FM271600 18012KT P6SM BKN040=



000
FTUS44 KOUN 262320
TAFSPS
TAF
KSPS 262320Z 2700/2724 16014G20KT 6SM -TSRA FEW025 SCT030CB
      TEMPO 2700/2702 2SM -TSRA FEW015 BKN030CB
     FM270300 17010KT P6SM BKN040
     FM271600 18012KT P6SM BKN040=



000
FTUS44 KOUN 262320
TAFWWR
TAF
KWWR 262320Z 2700/2724 18007KT P6SM SCT050 SCT250
     FM270900 16005KT 4SM BR BKN015
     FM271400 17012KT P6SM SCT015 BKN080
     FM271800 18013G20KT P6SM SCT120=



000
FTUS44 KOUN 262025 AAA
TAFPNC
TAF AMD
KPNC 262025Z 2620/2718 19008KT P6SM SCT120
      TEMPO 2620/2622 3SM TSRAGS BKN040CB
     FM262300 15008KT P6SM BKN100 PROB30 2708/2714 2SM -TSRA BR
      BKN020CB=



000
FTUS44 KOUN 262025 AAA
TAFPNC
TAF AMD
KPNC 262025Z 2620/2718 19008KT P6SM SCT120
      TEMPO 2620/2622 3SM TSRAGS BKN040CB
     FM262300 15008KT P6SM BKN100 PROB30 2708/2714 2SM -TSRA BR
      BKN020CB=



000
FTUS44 KOUN 261920 AAA
TAFOKC
TAF AMD
KOKC 261920Z 2619/2718 15010KT P6SM SCT040 SCT250
      TEMPO 2619/2620 3SM TSRA BKN040CB
     FM270000 15009KT P6SM SCT040 BKN250 PROB30 2704/2710 3SM -TSRA
      BR BKN040CB
     FM271000 15010KT P6SM BKN040
      TEMPO 2710/2714 3SM BR BKN010
     FM271400 18010KT P6SM BKN080=



000
FTUS44 KOUN 261920 AAA
TAFOKC
TAF AMD
KOKC 261920Z 2619/2718 15010KT P6SM SCT040 SCT250
      TEMPO 2619/2620 3SM TSRA BKN040CB
     FM270000 15009KT P6SM SCT040 BKN250 PROB30 2704/2710 3SM -TSRA
      BR BKN040CB
     FM271000 15010KT P6SM BKN040
      TEMPO 2710/2714 3SM BR BKN010
     FM271400 18010KT P6SM BKN080=



000
FTUS44 KOUN 261722
TAFLAW
TAF
KLAW 261722Z 2618/2718 16012KT P6SM SCT050
     FM270100 15009KT P6SM BKN040
     FM270800 13008KT P6SM BKN018
     FM271600 17012KT P6SM BKN040=



000
FTUS44 KOUN 261722
TAFPNC
TAF
KPNC 261722Z 2618/2718 19008KT P6SM SCT120
     FM262300 15008KT P6SM BKN100 PROB30 2708/2714 2SM -TSRA BR
      BKN020CB=



000
FTUS44 KOUN 261722
TAFGAG
TAF
KGAG 261722Z 2618/2718 20007KT P6SM SCT250
     FM270000 14008KT P6SM SCT050 SCT250
     FM270900 16005KT 5SM BR BKN015
     FM271300 18012KT P6SM SCT015 BKN080=



000
FTUS44 KOUN 261722
TAFOUN
TAF
KOUN 261722Z 2618/2718 19008KT P6SM SCT040 SCT250
     FM270000 14008KT P6SM SCT040 BKN250 PROB30 2704/2710 3SM -TSRA
      BR BKN040CB
     FM271000 15008KT P6SM BKN040
      TEMPO 2710/2714 3SM BR BKN010
     FM271400 18009KT P6SM BKN080=



000
FTUS44 KOUN 261722
TAFHBR
TAF
KHBR 261722Z 2618/2718 17016G22KT P6SM SCT050
     FM270800 16010KT 4SM BR BKN015
     FM271300 19013G18KT P6SM BKN040=



000
FTUS44 KOUN 261722
TAFWWR
TAF
KWWR 261722Z 2618/2718 20008KT P6SM SCT250
     FM270000 18007KT P6SM SCT050 SCT250
     FM270900 16005KT 5SM BR BKN015
     FM271300 17012KT P6SM SCT015 BKN080=



000
FTUS44 KOUN 261722
TAFOKC
TAF
KOKC 261722Z 2618/2718 19010KT P6SM SCT040 SCT250
     FM270000 15009KT P6SM SCT040 BKN250 PROB30 2704/2710 3SM -TSRA
      BR BKN040CB
     FM271000 15010KT P6SM BKN040
      TEMPO 2710/2714 3SM BR BKN010
     FM271400 18010KT P6SM BKN080=



000
FTUS44 KOUN 261722
TAFSPS
TAF
KSPS 261722Z 2618/2718 16012G18KT P6SM SCT050
     FM270000 16012KT P6SM BKN050 PROB30 2703/2707 4SM -TSRA
      OVC025CB
     FM270700 17010KT P6SM BKN015
     FM271600 18012KT P6SM BKN040=



000
FTUS44 KOUN 261722
TAFOKC
TAF
KOKC 261722Z 2618/2718 19010KT P6SM SCT040 SCT250
     FM270000 15009KT P6SM SCT040 BKN250 PROB30 2704/2710 3SM -TSRA
      BR BKN040CB
     FM271000 15010KT P6SM BKN040
      TEMPO 2710/2714 3SM BR BKN010
     FM271400 18010KT P6SM BKN080=



000
FTUS44 KOUN 261722
TAFLAW
TAF
KLAW 261722Z 2618/2718 16012KT P6SM SCT050
     FM270100 15009KT P6SM BKN040
     FM270800 13008KT P6SM BKN018
     FM271600 17012KT P6SM BKN040=



000
FTUS44 KOUN 261722
TAFWWR
TAF
KWWR 261722Z 2618/2718 20008KT P6SM SCT250
     FM270000 18007KT P6SM SCT050 SCT250
     FM270900 16005KT 5SM BR BKN015
     FM271300 17012KT P6SM SCT015 BKN080=



000
FTUS44 KOUN 261722
TAFPNC
TAF
KPNC 261722Z 2618/2718 19008KT P6SM SCT120
     FM262300 15008KT P6SM BKN100 PROB30 2708/2714 2SM -TSRA BR
      BKN020CB=



000
FTUS44 KOUN 261722
TAFSPS
TAF
KSPS 261722Z 2618/2718 16012G18KT P6SM SCT050
     FM270000 16012KT P6SM BKN050 PROB30 2703/2707 4SM -TSRA
      OVC025CB
     FM270700 17010KT P6SM BKN015
     FM271600 18012KT P6SM BKN040=



000
FTUS44 KOUN 261722
TAFGAG
TAF
KGAG 261722Z 2618/2718 20007KT P6SM SCT250
     FM270000 14008KT P6SM SCT050 SCT250
     FM270900 16005KT 5SM BR BKN015
     FM271300 18012KT P6SM SCT015 BKN080=



000
FTUS44 KOUN 261722
TAFOUN
TAF
KOUN 261722Z 2618/2718 19008KT P6SM SCT040 SCT250
     FM270000 14008KT P6SM SCT040 BKN250 PROB30 2704/2710 3SM -TSRA
      BR BKN040CB
     FM271000 15008KT P6SM BKN040
      TEMPO 2710/2714 3SM BR BKN010
     FM271400 18009KT P6SM BKN080=



000
FTUS44 KOUN 261722
TAFHBR
TAF
KHBR 261722Z 2618/2718 17016G22KT P6SM SCT050
     FM270800 16010KT 4SM BR BKN015
     FM271300 19013G18KT P6SM BKN040=



000
FTUS44 KOUN 261550 AAA
TAFSPS
TAF AMD
KSPS 261550Z 2616/2712 14012KT P6SM SCT030
     FM270100 17012KT P6SM BKN030 PROB30 2701/2706 6SM -TSRA
      OVC015CB=



000
FTUS44 KOUN 261550 AAA
TAFSPS
TAF AMD
KSPS 261550Z 2616/2712 14012KT P6SM SCT030
     FM270100 17012KT P6SM BKN030 PROB30 2701/2706 6SM -TSRA
      OVC015CB=



000
FTUS44 KOUN 261549 AAA
TAFLAW
TAF AMD
KLAW 261549Z 2616/2712 16013KT P6SM SCT030
     FM270100 17012KT P6SM BKN030 PROB30 2701/2706 6SM -TSRA
      OVC015CB=



000
FTUS44 KOUN 261549 AAA
TAFLAW
TAF AMD
KLAW 261549Z 2616/2712 16013KT P6SM SCT030
     FM270100 17012KT P6SM BKN030 PROB30 2701/2706 6SM -TSRA
      OVC015CB=



000
FTUS44 KOUN 261543 AAA
TAFHBR
TAF AMD
KHBR 261543Z 2616/2712 17011KT P6SM SCT050
     FM270000 16007KT P6SM SCT250
     FM270900 16005KT 5SM BR BKN015=



000
FTUS44 KOUN 261543 AAA
TAFHBR
TAF AMD
KHBR 261543Z 2616/2712 17011KT P6SM SCT050
     FM270000 16007KT P6SM SCT250
     FM270900 16005KT 5SM BR BKN015=



000
FTUS44 KOUN 261541 AAA
TAFWWR
TAF AMD
KWWR 261541Z 2616/2712 19008KT P6SM SCT050
     FM270000 16007KT P6SM SCT250
     FM270900 16005KT 5SM BR BKN015=



000
FTUS44 KOUN 261541 AAA
TAFGAG
TAF AMD
KGAG 261541Z 2616/2712 19008KT P6SM SCT050
     FM270000 16007KT P6SM SCT250
     FM270900 16005KT 5SM BR BKN015=



000
FTUS44 KOUN 261541 AAA
TAFGAG
TAF AMD
KGAG 261541Z 2616/2712 19008KT P6SM SCT050
     FM270000 16007KT P6SM SCT250
     FM270900 16005KT 5SM BR BKN015=



000
FTUS44 KOUN 261541 AAA
TAFWWR
TAF AMD
KWWR 261541Z 2616/2712 19008KT P6SM SCT050
     FM270000 16007KT P6SM SCT250
     FM270900 16005KT 5SM BR BKN015=



000
FTUS44 KOUN 261415 AAB
TAFOUN
TAF AMD
KOUN 261415Z 2614/2712 18008KT P6SM VCSH BKN100
      TEMPO 2614/2616 6SM BR OVC006
     FM261600 17012KT P6SM SCT030 SCT250
     FM270900 15010KT 5SM BR BKN008=



000
FTUS44 KOUN 261415 AAB
TAFOUN
TAF AMD
KOUN 261415Z 2614/2712 18008KT P6SM VCSH BKN100
      TEMPO 2614/2616 6SM BR OVC006
     FM261600 17012KT P6SM SCT030 SCT250
     FM270900 15010KT 5SM BR BKN008=



000
FTUS44 KOUN 261413 AAA
TAFOKC
TAF AMD
KOKC 261413Z 2614/2712 18010KT P6SM VCSH BKN100
      TEMPO 2614/2616 4SM BR OVC005
     FM261700 17012KT P6SM SCT030 SCT250
     FM270900 15010KT 5SM BR BKN008=



000
FTUS44 KOUN 261413 AAA
TAFOKC
TAF AMD
KOKC 261413Z 2614/2712 18010KT P6SM VCSH BKN100
      TEMPO 2614/2616 4SM BR OVC005
     FM261700 17012KT P6SM SCT030 SCT250
     FM270900 15010KT 5SM BR BKN008=



000
FTUS44 KOUN 261120
TAFWWR
TAF
KWWR 261120Z 2612/2712 14006KT 6SM BR BKN070
     FM261500 14007KT P6SM BKN050
     FM270000 18007KT P6SM SCT250
     FM270900 16005KT 5SM BR BKN015=



000
FTUS44 KOUN 261120
TAFHBR
TAF
KHBR 261120Z 2612/2712 18005KT P6SM VCSH BKN070
     FM261800 17012KT P6SM BKN030
     FM270000 16012KT P6SM BKN030
     FM270800 16010KT 4SM BR BKN015=



000
FTUS44 KOUN 261120
TAFPNC
TAF
KPNC 261120Z 2612/2712 18006KT P6SM FEW120
      TEMPO 2612/2614 3SM BR
     FM262200 16010KT P6SM BKN100 PROB30 2623/2704 5SM -TSRA
      BKN020CB=



000
FTUS44 KOUN 261120
TAFHBR
TAF
KHBR 261120Z 2612/2712 18005KT P6SM VCSH BKN070
     FM261800 17012KT P6SM BKN030
     FM270000 16012KT P6SM BKN030
     FM270800 16010KT 4SM BR BKN015=



000
FTUS44 KOUN 261120
TAFOUN
TAF
KOUN 261120Z 2612/2712 00000KT 1/4SM FG OVC002
     FM261330 16004KT 1SM BR VCSH OVC003
     FM261500 18011KT P6SM BKN250
      TEMPO 2615/2617 BKN020
     FM262200 16010KT P6SM BKN100 PROB30 2622/2703 5SM -TSRA
      BKN020CB
     FM270900 15010KT 5SM BR BKN008=



000
FTUS44 KOUN 261120
TAFLAW
TAF
KLAW 261120Z 2612/2712 15004KT P6SM SCT002
      TEMPO 2612/2614 1/2SM FG VV002
     FM261400 18004KT P6SM SCT250
     FM261500 16013KT P6SM BKN030
      TEMPO 2621/2701 5SM -TSRA OVC015CB
     FM270100 17012KT P6SM BKN030
      TEMPO 2701/2704 6SM -TSRA OVC015CB=



000
FTUS44 KOUN 261120
TAFSPS
TAF
KSPS 261120Z 2612/2712 18008KT P6SM SCT030
      TEMPO 2612/2613 1SM BR
     FM261500 18013KT P6SM BKN030
      TEMPO 2622/2702 5SM -TSRA OVC015CB
     FM270200 17012KT P6SM BKN030
      TEMPO 2702/2705 6SM -TSRA OVC015CB=



000
FTUS44 KOUN 261120
TAFGAG
TAF
KGAG 261120Z 2612/2712 14006KT 6SM BR VCSH BKN070
     FM261500 15007KT P6SM BKN050
     FM270000 16007KT P6SM SCT250
     FM270900 16005KT 5SM BR BKN015=



000
FTUS44 KOUN 261120
TAFOKC
TAF
KOKC 261120Z 2612/2712 17004KT 4SM BR BKN100
      TEMPO 2612/2614 1/4SM FG VV002
     FM261500 16010KT P6SM BKN250
     FM262200 16010KT P6SM BKN100 PROB30 2622/2703 5SM -TSRA
      BKN020CB
     FM270900 15010KT 5SM BR BKN008=



000
FTUS44 KOUN 261120
TAFWWR
TAF
KWWR 261120Z 2612/2712 14006KT 6SM BR BKN070
     FM261500 14007KT P6SM BKN050
     FM270000 18007KT P6SM SCT250
     FM270900 16005KT 5SM BR BKN015=



000
FTUS44 KOUN 261120
TAFOUN
TAF
KOUN 261120Z 2612/2712 00000KT 1/4SM FG OVC002
     FM261330 16004KT 1SM BR VCSH OVC003
     FM261500 18011KT P6SM BKN250
      TEMPO 2615/2617 BKN020
     FM262200 16010KT P6SM BKN100 PROB30 2622/2703 5SM -TSRA
      BKN020CB
     FM270900 15010KT 5SM BR BKN008=



000
FTUS44 KOUN 261120
TAFPNC
TAF
KPNC 261120Z 2612/2712 18006KT P6SM FEW120
      TEMPO 2612/2614 3SM BR
     FM262200 16010KT P6SM BKN100 PROB30 2623/2704 5SM -TSRA
      BKN020CB=



000
FTUS44 KOUN 261120
TAFLAW
TAF
KLAW 261120Z 2612/2712 15004KT P6SM SCT002
      TEMPO 2612/2614 1/2SM FG VV002
     FM261400 18004KT P6SM SCT250
     FM261500 16013KT P6SM BKN030
      TEMPO 2621/2701 5SM -TSRA OVC015CB
     FM270100 17012KT P6SM BKN030
      TEMPO 2701/2704 6SM -TSRA OVC015CB=



000
FTUS44 KOUN 261120
TAFOKC
TAF
KOKC 261120Z 2612/2712 17004KT 4SM BR BKN100
      TEMPO 2612/2614 1/4SM FG VV002
     FM261500 16010KT P6SM BKN250
     FM262200 16010KT P6SM BKN100 PROB30 2622/2703 5SM -TSRA
      BKN020CB
     FM270900 15010KT 5SM BR BKN008=



000
FTUS44 KOUN 261120
TAFGAG
TAF
KGAG 261120Z 2612/2712 14006KT 6SM BR VCSH BKN070
     FM261500 15007KT P6SM BKN050
     FM270000 16007KT P6SM SCT250
     FM270900 16005KT 5SM BR BKN015=



000
FTUS44 KOUN 261120
TAFSPS
TAF
KSPS 261120Z 2612/2712 18008KT P6SM SCT030
      TEMPO 2612/2613 1SM BR
     FM261500 18013KT P6SM BKN030
      TEMPO 2622/2702 5SM -TSRA OVC015CB
     FM270200 17012KT P6SM BKN030
      TEMPO 2702/2705 6SM -TSRA OVC015CB=



000
FTUS44 KOUN 261013 AAB
TAFOUN
TAF AMD
KOUN 261013Z 2610/2706 00000KT 1/4SM FG OVC002
     FM261330 18004KT 1SM BR OVC003
     FM261500 18011KT P6SM BKN250
     FM262200 17010KT P6SM BKN100 PROB30 2622/2703 5SM -TSRA
      BKN020CB=



000
FTUS44 KOUN 261013 AAB
TAFOUN
TAF AMD
KOUN 261013Z 2610/2706 00000KT 1/4SM FG OVC002
     FM261330 18004KT 1SM BR OVC003
     FM261500 18011KT P6SM BKN250
     FM262200 17010KT P6SM BKN100 PROB30 2622/2703 5SM -TSRA
      BKN020CB=



000
FTUS44 KOUN 261013 AAB
TAFOUN
TAF AMD
KOUN 261013Z 2610/2706 00000KT 1/4SM FG OVC002
     FM261330 18004KT 1SM BR OVC003
     FM261500 18011KT P6SM BKN250
     FM262200 17010KT P6SM BKN100 PROB30 2622/2703 5SM -TSRA
      BKN020CB=



000
FTUS44 KOUN 261013 AAB
TAFOUN
TAF AMD
KOUN 261013Z 2610/2706 00000KT 1/4SM FG OVC002
     FM261330 18004KT 1SM BR OVC003
     FM261500 18011KT P6SM BKN250
     FM262200 17010KT P6SM BKN100 PROB30 2622/2703 5SM -TSRA
      BKN020CB=



000
FTUS44 KOUN 260845 AAA
TAFSPS
TAF AMD
KSPS 260845Z 2609/2706 18004KT 1SM BR SCT002
      TEMPO 2610/2612 1/4SM FG VV002
     FM261500 18013KT P6SM BKN030
      TEMPO 2622/2702 5SM -TSRA OVC015CB
     FM270200 17012KT P6SM BKN030
      TEMPO 2702/2705 6SM -TSRA OVC015CB=



000
FTUS44 KOUN 260845 AAA
TAFSPS
TAF AMD
KSPS 260845Z 2609/2706 18004KT 1SM BR SCT002
      TEMPO 2610/2612 1/4SM FG VV002
     FM261500 18013KT P6SM BKN030
      TEMPO 2622/2702 5SM -TSRA OVC015CB
     FM270200 17012KT P6SM BKN030
      TEMPO 2702/2705 6SM -TSRA OVC015CB=



000
FTUS44 KOUN 260720 AAA
TAFLAW
TAF AMD
KLAW 260720Z 2607/2706 18002KT 1/4SM FG VV001
     FM261300 18004KT 3SM BR FEW002 SCT250
     FM261500 16013KT P6SM BKN030
      TEMPO 2621/2701 5SM -TSRA OVC015CB
     FM270100 17012KT P6SM BKN030
      TEMPO 2701/2704 6SM -TSRA OVC015CB=



000
FTUS44 KOUN 260720 AAA
TAFLAW
TAF AMD
KLAW 260720Z 2607/2706 18002KT 1/4SM FG VV001
     FM261300 18004KT 3SM BR FEW002 SCT250
     FM261500 16013KT P6SM BKN030
      TEMPO 2621/2701 5SM -TSRA OVC015CB
     FM270100 17012KT P6SM BKN030
      TEMPO 2701/2704 6SM -TSRA OVC015CB=



000
FTUS44 KOUN 260607 AAA
TAFPNC
TAF AMD
KPNC 260607Z 2606/2706 18006KT P6SM FEW120 BKN250=



000
FTUS44 KOUN 260607 AAA
TAFPNC
TAF AMD
KPNC 260607Z 2606/2706 18006KT P6SM FEW120 BKN250=



000
FTUS44 KOUN 260607 AAA
TAFPNC
TAF AMD
KPNC 260607Z 2606/2706 18006KT P6SM FEW120 BKN250=



000
FTUS44 KOUN 260607 AAA
TAFPNC
TAF AMD
KPNC 260607Z 2606/2706 18006KT P6SM FEW120 BKN250=



000
FTUS44 KOUN 260520
TAFOKC
TAF
KOKC 260520Z 2606/2706 16009KT P6SM SCT120
     FM260900 14006KT 4SM BR BKN100
     FM261500 18013KT P6SM BKN250
     FM262200 17010KT P6SM BKN100 PROB30 2622/2703 5SM -TSRA
      BKN020CB=



000
FTUS44 KOUN 260520
TAFHBR
TAF
KHBR 260520Z 2606/2706 18008KT P6SM SCT080
     FM261800 17012KT P6SM BKN030
      TEMPO 2621/2701 5SM -TSRA OVC020CB
     FM270100 16012KT P6SM BKN030
      TEMPO 2701/2704 6SM -SHRA OVC020=



000
FTUS44 KOUN 260520
TAFPNC
TAF
KPNC 260520Z 2606/2706 18012KT P6SM FEW120 BKN250
     FM261600 19007KT P6SM BKN250=



000
FTUS44 KOUN 260520
TAFGAG
TAF
KGAG 260520Z 2606/2706 16006KT P6SM SCT120
     FM260900 14006KT 6SM BR SCT120
     FM261500 15007KT P6SM BKN050
     FM270000 18007KT P6SM SCT250=



000
FTUS44 KOUN 260520
TAFHBR
TAF
KHBR 260520Z 2606/2706 18008KT P6SM SCT080
     FM261800 17012KT P6SM BKN030
      TEMPO 2621/2701 5SM -TSRA OVC020CB
     FM270100 16012KT P6SM BKN030
      TEMPO 2701/2704 6SM -SHRA OVC020=



000
FTUS44 KOUN 260520
TAFWWR
TAF
KWWR 260520Z 2606/2706 16006KT P6SM SCT120
     FM260900 14006KT 6SM BR SCT120
     FM261500 14007KT P6SM BKN050
     FM270000 18007KT P6SM SCT250=



000
FTUS44 KOUN 260520
TAFOUN
TAF
KOUN 260520Z 2606/2706 16009KT P6SM SCT120
     FM260900 14006KT 4SM BR BKN100
     FM261500 18013KT P6SM BKN250
     FM262200 17010KT P6SM BKN100 PROB30 2622/2703 5SM -TSRA
      BKN020CB=



000
FTUS44 KOUN 260520
TAFWWR
TAF
KWWR 260520Z 2606/2706 16006KT P6SM SCT120
     FM260900 14006KT 6SM BR SCT120
     FM261500 14007KT P6SM BKN050
     FM270000 18007KT P6SM SCT250=



000
FTUS44 KOUN 260520
TAFPNC
TAF
KPNC 260520Z 2606/2706 18012KT P6SM FEW120 BKN250
     FM261600 19007KT P6SM BKN250=



000
FTUS44 KOUN 260520
TAFOUN
TAF
KOUN 260520Z 2606/2706 16009KT P6SM SCT120
     FM260900 14006KT 4SM BR BKN100
     FM261500 18013KT P6SM BKN250
     FM262200 17010KT P6SM BKN100 PROB30 2622/2703 5SM -TSRA
      BKN020CB=



000
FTUS44 KOUN 260520
TAFPNC
TAF
KPNC 260520Z 2606/2706 18012KT P6SM FEW120 BKN250
     FM261600 19007KT P6SM BKN250=



000
FTUS44 KOUN 260520
TAFSPS
TAF
KSPS 260520Z 2606/2706 30011KT P6SM SCT250
     FM260800 18007KT 4SM BR BKN015
     FM261500 18013KT P6SM BKN030
      TEMPO 2622/2702 5SM -TSRA OVC015CB
     FM270200 17012KT P6SM BKN030
      TEMPO 2702/2705 6SM -TSRA OVC015CB=



000
FTUS44 KOUN 260520
TAFOUN
TAF
KOUN 260520Z 2606/2706 16009KT P6SM SCT120
     FM260900 14006KT 4SM BR BKN100
     FM261500 18013KT P6SM BKN250
     FM262200 17010KT P6SM BKN100 PROB30 2622/2703 5SM -TSRA
      BKN020CB=



000
FTUS44 KOUN 260520
TAFLAW
TAF
KLAW 260520Z 2606/2706 18004KT 2SM BR SCT250
     FM261300 18005KT 4SM BR SCT250
     FM261500 16013KT P6SM BKN030
      TEMPO 2621/2701 5SM -TSRA OVC015CB
     FM270100 17012KT P6SM BKN030
      TEMPO 2701/2704 6SM -TSRA OVC015CB=



000
FTUS44 KOUN 260520
TAFSPS
TAF
KSPS 260520Z 2606/2706 30011KT P6SM SCT250
     FM260800 18007KT 4SM BR BKN015
     FM261500 18013KT P6SM BKN030
      TEMPO 2622/2702 5SM -TSRA OVC015CB
     FM270200 17012KT P6SM BKN030
      TEMPO 2702/2705 6SM -TSRA OVC015CB=



000
FTUS44 KOUN 260520
TAFSPS
TAF
KSPS 260520Z 2606/2706 30011KT P6SM SCT250
     FM260800 18007KT 4SM BR BKN015
     FM261500 18013KT P6SM BKN030
      TEMPO 2622/2702 5SM -TSRA OVC015CB
     FM270200 17012KT P6SM BKN030
      TEMPO 2702/2705 6SM -TSRA OVC015CB=



000
FTUS44 KOUN 260520
TAFGAG
TAF
KGAG 260520Z 2606/2706 16006KT P6SM SCT120
     FM260900 14006KT 6SM BR SCT120
     FM261500 15007KT P6SM BKN050
     FM270000 18007KT P6SM SCT250=



000
FTUS44 KOUN 260520
TAFGAG
TAF
KGAG 260520Z 2606/2706 16006KT P6SM SCT120
     FM260900 14006KT 6SM BR SCT120
     FM261500 15007KT P6SM BKN050
     FM270000 18007KT P6SM SCT250=



000
FTUS44 KOUN 260520
TAFWWR
TAF
KWWR 260520Z 2606/2706 16006KT P6SM SCT120
     FM260900 14006KT 6SM BR SCT120
     FM261500 14007KT P6SM BKN050
     FM270000 18007KT P6SM SCT250=



000
FTUS44 KOUN 260520
TAFOKC
TAF
KOKC 260520Z 2606/2706 16009KT P6SM SCT120
     FM260900 14006KT 4SM BR BKN100
     FM261500 18013KT P6SM BKN250
     FM262200 17010KT P6SM BKN100 PROB30 2622/2703 5SM -TSRA
      BKN020CB=



000
FTUS44 KOUN 260520
TAFHBR
TAF
KHBR 260520Z 2606/2706 18008KT P6SM SCT080
     FM261800 17012KT P6SM BKN030
      TEMPO 2621/2701 5SM -TSRA OVC020CB
     FM270100 16012KT P6SM BKN030
      TEMPO 2701/2704 6SM -SHRA OVC020=



000
FTUS44 KOUN 260520
TAFOUN
TAF
KOUN 260520Z 2606/2706 16009KT P6SM SCT120
     FM260900 14006KT 4SM BR BKN100
     FM261500 18013KT P6SM BKN250
     FM262200 17010KT P6SM BKN100 PROB30 2622/2703 5SM -TSRA
      BKN020CB=



000
FTUS44 KOUN 260520
TAFSPS
TAF
KSPS 260520Z 2606/2706 30011KT P6SM SCT250
     FM260800 18007KT 4SM BR BKN015
     FM261500 18013KT P6SM BKN030
      TEMPO 2622/2702 5SM -TSRA OVC015CB
     FM270200 17012KT P6SM BKN030
      TEMPO 2702/2705 6SM -TSRA OVC015CB=



000
FTUS44 KOUN 260520
TAFLAW
TAF
KLAW 260520Z 2606/2706 18004KT 2SM BR SCT250
     FM261300 18005KT 4SM BR SCT250
     FM261500 16013KT P6SM BKN030
      TEMPO 2621/2701 5SM -TSRA OVC015CB
     FM270100 17012KT P6SM BKN030
      TEMPO 2701/2704 6SM -TSRA OVC015CB=



000
FTUS44 KOUN 260520
TAFPNC
TAF
KPNC 260520Z 2606/2706 18012KT P6SM FEW120 BKN250
     FM261600 19007KT P6SM BKN250=



000
FTUS44 KOUN 260520
TAFOKC
TAF
KOKC 260520Z 2606/2706 16009KT P6SM SCT120
     FM260900 14006KT 4SM BR BKN100
     FM261500 18013KT P6SM BKN250
     FM262200 17010KT P6SM BKN100 PROB30 2622/2703 5SM -TSRA
      BKN020CB=



000
FTUS44 KOUN 260520
TAFGAG
TAF
KGAG 260520Z 2606/2706 16006KT P6SM SCT120
     FM260900 14006KT 6SM BR SCT120
     FM261500 15007KT P6SM BKN050
     FM270000 18007KT P6SM SCT250=



000
FTUS44 KOUN 260520
TAFHBR
TAF
KHBR 260520Z 2606/2706 18008KT P6SM SCT080
     FM261800 17012KT P6SM BKN030
      TEMPO 2621/2701 5SM -TSRA OVC020CB
     FM270100 16012KT P6SM BKN030
      TEMPO 2701/2704 6SM -SHRA OVC020=



000
FTUS44 KOUN 260520
TAFWWR
TAF
KWWR 260520Z 2606/2706 16006KT P6SM SCT120
     FM260900 14006KT 6SM BR SCT120
     FM261500 14007KT P6SM BKN050
     FM270000 18007KT P6SM SCT250=



000
FTUS44 KOUN 260520
TAFOKC
TAF
KOKC 260520Z 2606/2706 16009KT P6SM SCT120
     FM260900 14006KT 4SM BR BKN100
     FM261500 18013KT P6SM BKN250
     FM262200 17010KT P6SM BKN100 PROB30 2622/2703 5SM -TSRA
      BKN020CB=



000
FTUS44 KOUN 260520
TAFLAW
TAF
KLAW 260520Z 2606/2706 18004KT 2SM BR SCT250
     FM261300 18005KT 4SM BR SCT250
     FM261500 16013KT P6SM BKN030
      TEMPO 2621/2701 5SM -TSRA OVC015CB
     FM270100 17012KT P6SM BKN030
      TEMPO 2701/2704 6SM -TSRA OVC015CB=



000
FTUS44 KOUN 260520
TAFLAW
TAF
KLAW 260520Z 2606/2706 18004KT 2SM BR SCT250
     FM261300 18005KT 4SM BR SCT250
     FM261500 16013KT P6SM BKN030
      TEMPO 2621/2701 5SM -TSRA OVC015CB
     FM270100 17012KT P6SM BKN030
      TEMPO 2701/2704 6SM -TSRA OVC015CB=



000
FTUS44 KOUN 252320
TAFLAW
TAF
KLAW 252320Z 2600/2624 32004KT P6SM SCT120
     FM260900 18007KT 4SM BR BKN015
     FM261500 17009KT P6SM BKN030
      TEMPO 2621/2624 5SM -TSRA OVC015CB=



000
FTUS44 KOUN 252320
TAFPNC
TAF
KPNC 252320Z 2600/2624 16008KT P6SM -RA FEW040 SCT060 OVC100
     FM260030 16012KT P6SM FEW030 BKN080
     FM260800 16005KT 4SM BR BKN015
     FM261500 19007KT P6SM BKN030=



000
FTUS44 KOUN 252320
TAFSPS
TAF
KSPS 252320Z 2600/2624 30011KT P6SM SCT120
     FM260900 18007KT 4SM BR BKN015
     FM261500 19009KT P6SM BKN030
      TEMPO 2621/2624 5SM -TSRA OVC015CB=



000
FTUS44 KOUN 252320
TAFOUN
TAF
KOUN 252320Z 2600/2624 12013KT P6SM SCT120
      TEMPO 2600/2602 12020G35KT
     FM260200 16009KT P6SM SCT120
     FM260800 14006KT 6SM BR BKN100
     FM261500 18010KT P6SM BKN025
      TEMPO 2620/2624 5SM -TSRA BKN015CB=



000
FTUS44 KOUN 252320
TAFGAG
TAF
KGAG 252320Z 2600/2624 20014KT P6SM FEW120
     FM260300 16006KT P6SM BKN050
     FM260900 14006KT 3SM BR BKN010
     FM261500 14007KT P6SM BKN030=



000
FTUS44 KOUN 252320
TAFOKC
TAF
KOKC 252320Z 2600/2624 12013KT P6SM FEW090 SCT100 BKN120
      TEMPO 2600/2602 12020G35KT
     FM260200 16009KT P6SM SCT120
     FM260800 14006KT 6SM BR BKN100
     FM261500 18013KT P6SM BKN025
      TEMPO 2620/2624 5SM -TSRA BKN015CB=



000
FTUS44 KOUN 252320
TAFHBR
TAF
KHBR 252320Z 2600/2624 33012KT P6SM SCT120
     FM260400 18008KT P6SM SCT080
     FM260900 18008KT 6SM BR BKN015
     FM261500 17009KT P6SM BKN030
      TEMPO 2621/2624 6SM -TSRA OVC015CB=



000
FTUS44 KOUN 252320
TAFLAW
TAF
KLAW 252320Z 2600/2624 32004KT P6SM SCT120
     FM260900 18007KT 4SM BR BKN015
     FM261500 17009KT P6SM BKN030
      TEMPO 2621/2624 5SM -TSRA OVC015CB=



000
FTUS44 KOUN 252320
TAFWWR
TAF
KWWR 252320Z 2600/2624 20012KT P6SM SCT120
     FM260300 16006KT P6SM BKN050
     FM260900 14006KT 3SM BR BKN010
     FM261500 14007KT P6SM BKN030=



000
FTUS44 KOUN 252320
TAFOUN
TAF
KOUN 252320Z 2600/2624 12013KT P6SM SCT120
      TEMPO 2600/2602 12020G35KT
     FM260200 16009KT P6SM SCT120
     FM260800 14006KT 6SM BR BKN100
     FM261500 18010KT P6SM BKN025
      TEMPO 2620/2624 5SM -TSRA BKN015CB=



000
FTUS44 KOUN 252320
TAFSPS
TAF
KSPS 252320Z 2600/2624 30011KT P6SM SCT120
     FM260900 18007KT 4SM BR BKN015
     FM261500 19009KT P6SM BKN030
      TEMPO 2621/2624 5SM -TSRA OVC015CB=



000
FTUS44 KOUN 252128 AAD
TAFOUN
TAF AMD
KOUN 252128Z 2521/2618 23016G21KT 6SM RA SCT014 BKN030 OVC060
      TEMPO 2521/2523 14020G40KT
     FM252300 26012KT P6SM SCT020 BKN030 OVC040
     FM260800 14006KT 4SM BR BKN012
     FM261500 15010KT P6SM BKN025=



000
FTUS44 KOUN 252128 AAD
TAFOUN
TAF AMD
KOUN 252128Z 2521/2618 23016G21KT 6SM RA SCT014 BKN030 OVC060
      TEMPO 2521/2523 14020G40KT
     FM252300 26012KT P6SM SCT020 BKN030 OVC040
     FM260800 14006KT 4SM BR BKN012
     FM261500 15010KT P6SM BKN025=



000
FTUS44 KOUN 252125 AAC
TAFOKC
TAF AMD
KOKC 252125Z 2521/2618 24014KT 5SM TSRA BR SCT022 BKN060CB OVC080
      TEMPO 2521/2523 VRB20G40KT
     FM252300 27014KT P6SM SCT020 BKN060 OVC080
     FM260800 14006KT 5SM BR BKN012
     FM261500 15010KT P6SM BKN025=



000
FTUS44 KOUN 252125 AAC
TAFOKC
TAF AMD
KOKC 252125Z 2521/2618 24014KT 5SM TSRA BR SCT022 BKN060CB OVC080
      TEMPO 2521/2523 VRB20G40KT
     FM252300 27014KT P6SM SCT020 BKN060 OVC080
     FM260800 14006KT 5SM BR BKN012
     FM261500 15010KT P6SM BKN025=



000
FTUS44 KOUN 252123 AAB
TAFOKC
TAF AMD
KOKC 252123Z 2521/2618 24014KT 5SM TSRA BR SCT022 BKN060CB OVC080
      TEMPO 2521/2522 VRB17G35KT
     FM252230 27012KT P6SM SCT020 BKN060 OVC080
     FM260800 14006KT 5SM BR BKN012
     FM261500 15010KT P6SM BKN025=



000
FTUS44 KOUN 252123 AAB
TAFOKC
TAF AMD
KOKC 252123Z 2521/2618 24014KT 5SM TSRA BR SCT022 BKN060CB OVC080
      TEMPO 2521/2522 VRB17G35KT
     FM252230 27012KT P6SM SCT020 BKN060 OVC080
     FM260800 14006KT 5SM BR BKN012
     FM261500 15010KT P6SM BKN025=



000
FTUS44 KOUN 252104 AAB
TAFOUN
TAF AMD
KOUN 252104Z 2521/2618 25016G21KT 3SM TSRA SCT014 BKN028 OVC045CB
     FM252230 26012KT P6SM SCT020 BKN030 OVC040
     FM260800 14006KT 4SM BR BKN012
     FM261500 15010KT P6SM BKN025=



000
FTUS44 KOUN 252104 AAB
TAFOUN
TAF AMD
KOUN 252104Z 2521/2618 25016G21KT 3SM TSRA SCT014 BKN028 OVC045CB
     FM252230 26012KT P6SM SCT020 BKN030 OVC040
     FM260800 14006KT 4SM BR BKN012
     FM261500 15010KT P6SM BKN025=



000
FTUS44 KOUN 252103 AAA
TAFOKC
TAF AMD
KOKC 252103Z 2521/2618 24014KT 5SM TSRA BR SCT022 BKN060CB OVC080
     FM252200 27012KT P6SM SCT020 BKN060 OVC080
     FM260800 14006KT 5SM BR BKN012
     FM261500 15010KT P6SM BKN025=



000
FTUS44 KOUN 252100 AAA
TAFSPS
TAF AMD
KSPS 252100Z 2521/2618 34010KT P6SM FEW060 OVC100
     FM260900 17008KT 4SM BR BKN015
     FM261500 18010KT P6SM BKN030=



000
FTUS44 KOUN 252100 AAA
TAFSPS
TAF AMD
KSPS 252100Z 2521/2618 34010KT P6SM FEW060 OVC100
     FM260900 17008KT 4SM BR BKN015
     FM261500 18010KT P6SM BKN030=



000
FTUS44 KOUN 252059 AAA
TAFLAW
TAF AMD
KLAW 252059Z 2521/2618 34012KT P6SM FEW060 OVC100
     FM260900 18007KT 4SM BR BKN015
     FM261500 17009KT P6SM BKN030=



000
FTUS44 KOUN 252059 AAA
TAFLAW
TAF AMD
KLAW 252059Z 2521/2618 34012KT P6SM FEW060 OVC100
     FM260900 18007KT 4SM BR BKN015
     FM261500 17009KT P6SM BKN030=



000
FTUS44 KOUN 251726
TAFLAW
TAF
KLAW 251726Z 2518/2618 16013KT P6SM -RA SCT025 OVC050
      TEMPO 2518/2522 VRB45KT 1SM +TSRA SCT008 OVC015CB
     FM252300 16009KT P6SM FEW010 BKN100
     FM260900 18007KT 4SM BR BKN015
     FM261500 17009KT P6SM BKN030=



000
FTUS44 KOUN 251726
TAFOKC
TAF
KOKC 251726Z 2518/2618 18015G23KT P6SM BKN035 BKN200
     FM252000 18014G22KT 5SM -TSRA BR SCT015 OVC040CB
      TEMPO 2521/2524 VRB45KT 1SM +TSRA SCT008 OVC015CB
     FM260200 15007KT P6SM FEW007 BKN150
     FM260800 14006KT 5SM BR BKN012
     FM261500 15010KT P6SM BKN025=



000
FTUS44 KOUN 251726
TAFOUN
TAF
KOUN 251726Z 2518/2618 18013G20KT P6SM BKN035
     FM252000 18014G22KT 5SM -TSRA BR SCT015 OVC040CB
      TEMPO 2521/2524 VRB45KT 1SM +TSRA SCT008 OVC015CB
     FM260200 15007KT P6SM FEW007 BKN150
     FM260800 14006KT 4SM BR BKN012
     FM261500 15010KT P6SM BKN025=



000
FTUS44 KOUN 251726
TAFSPS
TAF
KSPS 251726Z 2518/2618 17015G22KT 5SM -TSRA SCT025 OVC070CB
      TEMPO 2518/2521 VRB50KT 1SM +TSRA SCT008 OVC012CB
     FM252300 16009KT P6SM FEW007 BKN080
     FM260900 17008KT 4SM BR BKN015
     FM261500 18010KT P6SM BKN030=



000
FTUS44 KOUN 251726
TAFPNC
TAF
KPNC 251726Z 2518/2618 17013G20KT P6SM BKN035
     FM252200 17012G20KT 5SM -TSRA BR SCT015 OVC040CB
      TEMPO 2522/2601 VRB45KT 1SM +TSRA SCT008 OVC015CB
     FM260200 15007KT P6SM FEW015 BKN150
     FM260900 VRB05KT 3SM BR BKN015
     FM261500 19007KT P6SM BKN030=



000
FTUS44 KOUN 251726
TAFWWR
TAF
KWWR 251726Z 2518/2618 21015G23KT P6SM FEW025 BKN250
     FM260100 15008KT P6SM SCT150 BKN250
     FM260900 14006KT 3SM BR BKN010
     FM261500 14007KT P6SM BKN030=



000
FTUS44 KOUN 251726
TAFHBR
TAF
KHBR 251726Z 2518/2618 19018G25KT P6SM -RA SCT025 OVC060
      TEMPO 2518/2521 VRB45KT 2SM +TSRA SCT008 OVC015CB
     FM252200 17012KT P6SM FEW012 BKN100
     FM260900 18007KT 4SM BR BKN015
     FM261500 17009KT P6SM BKN030=



000
FTUS44 KOUN 251726
TAFGAG
TAF
KGAG 251726Z 2518/2618 21015G23KT P6SM FEW025 BKN250
     FM260100 15008KT P6SM SCT150 BKN250
     FM260900 14006KT 3SM BR BKN010
     FM261500 14007KT P6SM BKN030=



000
FTUS44 KOUN 251726
TAFOUN
TAF
KOUN 251726Z 2518/2618 18013G20KT P6SM BKN035
     FM252000 18014G22KT 5SM -TSRA BR SCT015 OVC040CB
      TEMPO 2521/2524 VRB45KT 1SM +TSRA SCT008 OVC015CB
     FM260200 15007KT P6SM FEW007 BKN150
     FM260800 14006KT 4SM BR BKN012
     FM261500 15010KT P6SM BKN025=



000
FTUS44 KOUN 251726
TAFWWR
TAF
KWWR 251726Z 2518/2618 21015G23KT P6SM FEW025 BKN250
     FM260100 15008KT P6SM SCT150 BKN250
     FM260900 14006KT 3SM BR BKN010
     FM261500 14007KT P6SM BKN030=



000
FTUS44 KOUN 251726
TAFPNC
TAF
KPNC 251726Z 2518/2618 17013G20KT P6SM BKN035
     FM252200 17012G20KT 5SM -TSRA BR SCT015 OVC040CB
      TEMPO 2522/2601 VRB45KT 1SM +TSRA SCT008 OVC015CB
     FM260200 15007KT P6SM FEW015 BKN150
     FM260900 VRB05KT 3SM BR BKN015
     FM261500 19007KT P6SM BKN030=



000
FTUS44 KOUN 251726
TAFOKC
TAF
KOKC 251726Z 2518/2618 18015G23KT P6SM BKN035 BKN200
     FM252000 18014G22KT 5SM -TSRA BR SCT015 OVC040CB
      TEMPO 2521/2524 VRB45KT 1SM +TSRA SCT008 OVC015CB
     FM260200 15007KT P6SM FEW007 BKN150
     FM260800 14006KT 5SM BR BKN012
     FM261500 15010KT P6SM BKN025=



000
FTUS44 KOUN 251726
TAFGAG
TAF
KGAG 251726Z 2518/2618 21015G23KT P6SM FEW025 BKN250
     FM260100 15008KT P6SM SCT150 BKN250
     FM260900 14006KT 3SM BR BKN010
     FM261500 14007KT P6SM BKN030=



000
FTUS44 KOUN 251726
TAFHBR
TAF
KHBR 251726Z 2518/2618 19018G25KT P6SM -RA SCT025 OVC060
      TEMPO 2518/2521 VRB45KT 2SM +TSRA SCT008 OVC015CB
     FM252200 17012KT P6SM FEW012 BKN100
     FM260900 18007KT 4SM BR BKN015
     FM261500 17009KT P6SM BKN030=



000
FTUS44 KOUN 251726
TAFLAW
TAF
KLAW 251726Z 2518/2618 16013KT P6SM -RA SCT025 OVC050
      TEMPO 2518/2522 VRB45KT 1SM +TSRA SCT008 OVC015CB
     FM252300 16009KT P6SM FEW010 BKN100
     FM260900 18007KT 4SM BR BKN015
     FM261500 17009KT P6SM BKN030=



000
FTUS44 KOUN 251726
TAFGAG
TAF
KGAG 251726Z 2518/2618 21015G23KT P6SM FEW025 BKN250
     FM260100 15008KT P6SM SCT150 BKN250
     FM260900 14006KT 3SM BR BKN010
     FM261500 14007KT P6SM BKN030=



000
FTUS44 KOUN 251726
TAFHBR
TAF
KHBR 251726Z 2518/2618 19018G25KT P6SM -RA SCT025 OVC060
      TEMPO 2518/2521 VRB45KT 2SM +TSRA SCT008 OVC015CB
     FM252200 17012KT P6SM FEW012 BKN100
     FM260900 18007KT 4SM BR BKN015
     FM261500 17009KT P6SM BKN030=



000
FTUS44 KOUN 251726
TAFLAW
TAF
KLAW 251726Z 2518/2618 16013KT P6SM -RA SCT025 OVC050
      TEMPO 2518/2522 VRB45KT 1SM +TSRA SCT008 OVC015CB
     FM252300 16009KT P6SM FEW010 BKN100
     FM260900 18007KT 4SM BR BKN015
     FM261500 17009KT P6SM BKN030=



000
FTUS44 KOUN 251726
TAFPNC
TAF
KPNC 251726Z 2518/2618 17013G20KT P6SM BKN035
     FM252200 17012G20KT 5SM -TSRA BR SCT015 OVC040CB
      TEMPO 2522/2601 VRB45KT 1SM +TSRA SCT008 OVC015CB
     FM260200 15007KT P6SM FEW015 BKN150
     FM260900 VRB05KT 3SM BR BKN015
     FM261500 19007KT P6SM BKN030=



000
FTUS44 KOUN 251726
TAFOKC
TAF
KOKC 251726Z 2518/2618 18015G23KT P6SM BKN035 BKN200
     FM252000 18014G22KT 5SM -TSRA BR SCT015 OVC040CB
      TEMPO 2521/2524 VRB45KT 1SM +TSRA SCT008 OVC015CB
     FM260200 15007KT P6SM FEW007 BKN150
     FM260800 14006KT 5SM BR BKN012
     FM261500 15010KT P6SM BKN025=



000
FTUS44 KOUN 251726
TAFSPS
TAF
KSPS 251726Z 2518/2618 17015G22KT 5SM -TSRA SCT025 OVC070CB
      TEMPO 2518/2521 VRB50KT 1SM +TSRA SCT008 OVC012CB
     FM252300 16009KT P6SM FEW007 BKN080
     FM260900 17008KT 4SM BR BKN015
     FM261500 18010KT P6SM BKN030=



000
FTUS44 KOUN 251726
TAFOUN
TAF
KOUN 251726Z 2518/2618 18013G20KT P6SM BKN035
     FM252000 18014G22KT 5SM -TSRA BR SCT015 OVC040CB
      TEMPO 2521/2524 VRB45KT 1SM +TSRA SCT008 OVC015CB
     FM260200 15007KT P6SM FEW007 BKN150
     FM260800 14006KT 4SM BR BKN012
     FM261500 15010KT P6SM BKN025=



000
FTUS44 KOUN 251726
TAFWWR
TAF
KWWR 251726Z 2518/2618 21015G23KT P6SM FEW025 BKN250
     FM260100 15008KT P6SM SCT150 BKN250
     FM260900 14006KT 3SM BR BKN010
     FM261500 14007KT P6SM BKN030=



000
FTUS44 KOUN 251137
TAFSPS
TAF
KSPS 251137Z 2512/2612 18012KT P6SM BKN009
     FM251300 18013KT P6SM BKN015
     FM251500 17014G22KT P6SM BKN022
     FM251900 17015G22KT 5SM -TSRA SCT025 OVC070CB
      TEMPO 2519/2521 23025G35KT 1SM +TSRA SCT008 OVC025CB
     FM252200 16009KT P6SM FEW007 BKN150=



000
FTUS44 KOUN 251137
TAFGAG
TAF
KGAG 251137Z 2512/2612 19015G23KT P6SM FEW009 BKN250
     FM260100 15008KT P6SM SCT250=



000
FTUS44 KOUN 251137
TAFHBR
TAF
KHBR 251137Z 2512/2612 18014KT P6SM BKN006
     FM251400 19017G24KT P6SM BKN012
     FM251600 19018G25KT P6SM SCT025 OVC200
     FM252000 17015G22KT 6SM -TSRA SCT025 OVC070CB
      TEMPO 2520/2522 22020G34KT 2SM +TSRA SCT008 OVC025CB
     FM252200 16011KT P6SM FEW007 BKN150=



000
FTUS44 KOUN 251137
TAFPNC
TAF
KPNC 251137Z 2512/2612 15012KT P6SM OVC007
     FM251500 17013KT P6SM OVC015
     FM252000 16013KT P6SM BKN025
     FM252200 17012G20KT 5SM -TSRA BR SCT015 OVC040CB
      TEMPO 2522/2524 23020G30KT 1SM +TSRA SCT008 OVC015CB
     FM260000 15007KT P6SM FEW007 BKN150=



000
FTUS44 KOUN 251137
TAFOKC
TAF
KOKC 251137Z 2512/2612 17012KT P6SM BKN008
     FM251400 17013G20KT P6SM BKN015
     FM251900 17013G20KT P6SM BKN025
     FM252100 17012G20KT 5SM -TSRA BR SCT015 OVC040CB
      TEMPO 2521/2523 23020G34KT 1SM +TSRA SCT008 OVC015CB
     FM252300 15007KT P6SM FEW007 BKN150=



000
FTUS44 KOUN 251137
TAFLAW
TAF
KLAW 251137Z 2512/2612 18010KT P6SM BKN008
     FM251400 19012KT P6SM BKN012
     FM251600 19013KT P6SM SCT025 OVC200
     FM252000 17015G22KT 5SM -TSRA SCT025 OVC070CB
      TEMPO 2520/2522 22025G35KT 1SM +TSRA SCT008 OVC025CB
     FM252200 16007KT P6SM FEW007 BKN150=



000
FTUS44 KOUN 251137
TAFOUN
TAF
KOUN 251137Z 2512/2612 17012KT P6SM BKN009
     FM251300 17013G20KT P6SM BKN015
     FM251900 17013G20KT P6SM BKN025
     FM252100 17012G20KT 5SM -TSRA BR SCT015 OVC040CB
      TEMPO 2521/2523 23020G34KT 1SM +TSRA SCT008 OVC015CB
     FM252300 15007KT P6SM FEW007 BKN150=



000
FTUS44 KOUN 251137
TAFWWR
TAF
KWWR 251137Z 2512/2612 19015G23KT P6SM FEW009 BKN250
     FM260100 15008KT P6SM SCT250=



000
FTUS44 KOUN 251137
TAFGAG
TAF
KGAG 251137Z 2512/2612 19015G23KT P6SM FEW009 BKN250
     FM260100 15008KT P6SM SCT250=



000
FTUS44 KOUN 251137
TAFOUN
TAF
KOUN 251137Z 2512/2612 17012KT P6SM BKN009
     FM251300 17013G20KT P6SM BKN015
     FM251900 17013G20KT P6SM BKN025
     FM252100 17012G20KT 5SM -TSRA BR SCT015 OVC040CB
      TEMPO 2521/2523 23020G34KT 1SM +TSRA SCT008 OVC015CB
     FM252300 15007KT P6SM FEW007 BKN150=



000
FTUS44 KOUN 251137
TAFOKC
TAF
KOKC 251137Z 2512/2612 17012KT P6SM BKN008
     FM251400 17013G20KT P6SM BKN015
     FM251900 17013G20KT P6SM BKN025
     FM252100 17012G20KT 5SM -TSRA BR SCT015 OVC040CB
      TEMPO 2521/2523 23020G34KT 1SM +TSRA SCT008 OVC015CB
     FM252300 15007KT P6SM FEW007 BKN150=



000
FTUS44 KOUN 251137
TAFLAW
TAF
KLAW 251137Z 2512/2612 18010KT P6SM BKN008
     FM251400 19012KT P6SM BKN012
     FM251600 19013KT P6SM SCT025 OVC200
     FM252000 17015G22KT 5SM -TSRA SCT025 OVC070CB
      TEMPO 2520/2522 22025G35KT 1SM +TSRA SCT008 OVC025CB
     FM252200 16007KT P6SM FEW007 BKN150=



000
FTUS44 KOUN 251137
TAFPNC
TAF
KPNC 251137Z 2512/2612 15012KT P6SM OVC007
     FM251500 17013KT P6SM OVC015
     FM252000 16013KT P6SM BKN025
     FM252200 17012G20KT 5SM -TSRA BR SCT015 OVC040CB
      TEMPO 2522/2524 23020G30KT 1SM +TSRA SCT008 OVC015CB
     FM260000 15007KT P6SM FEW007 BKN150=



000
FTUS44 KOUN 251137
TAFHBR
TAF
KHBR 251137Z 2512/2612 18014KT P6SM BKN006
     FM251400 19017G24KT P6SM BKN012
     FM251600 19018G25KT P6SM SCT025 OVC200
     FM252000 17015G22KT 6SM -TSRA SCT025 OVC070CB
      TEMPO 2520/2522 22020G34KT 2SM +TSRA SCT008 OVC025CB
     FM252200 16011KT P6SM FEW007 BKN150=



000
FTUS44 KOUN 251137
TAFSPS
TAF
KSPS 251137Z 2512/2612 18012KT P6SM BKN009
     FM251300 18013KT P6SM BKN015
     FM251500 17014G22KT P6SM BKN022
     FM251900 17015G22KT 5SM -TSRA SCT025 OVC070CB
      TEMPO 2519/2521 23025G35KT 1SM +TSRA SCT008 OVC025CB
     FM252200 16009KT P6SM FEW007 BKN150=



000
FTUS44 KOUN 251137
TAFWWR
TAF
KWWR 251137Z 2512/2612 19015G23KT P6SM FEW009 BKN250
     FM260100 15008KT P6SM SCT250=



    US Dept of Commerce
    National Oceanic and Atmospheric Administration
    National Weather Service
    1325 East West Highway
    Silver Spring, MD 20910
    Page Author: NWS Internet Services Team
Disclaimer
Information Quality
Credits
Glossary
Privacy Policy
Freedom of Information Act (FOIA)
About Us
Career Opportunities